Home > Products > Valid Products > TAF

000
FTUS46 KPQR 241138
TAFTTD
TAF
KTTD 241138Z 2412/2512 00000KT 6SM BR BKN015 OVC025
     FM241300 09003KT 3SM BR BKN007 OVC015
     FM241800 09006KT P6SM FEW007 BKN020
     FM250200 22005KT 5SM -RA BR OVC050=



000
FTUS46 KPQR 241138
TAFAST
TAF
KAST 241138Z 2412/2512 00000KT 1/2SM FG VV003
     FM241700 15005KT 1 1/2SM BR SCT005 OVC030
     FM241900 16010KT 5SM BR OVC035
     FM242100 20017G24KT 4SM -RA BR OVC020=



000
FTUS46 KPQR 241138
TAFEUG
TAF
KEUG 241138Z 2412/2512 18009KT P6SM BKN250
     FM250000 18012KT P6SM -RA OVC050=



000
FTUS46 KPQR 241138
TAFPDX
TAF
KPDX 241138Z 2412/2512 13003KT P6SM BKN012 OVC035
     FM241400 13003KT 4SM BR BKN007 OVC012
     FM241700 15006KT P6SM SCT009 BKN015
     FM242100 15008KT P6SM BKN050 OVC080
     FM250000 17009KT P6SM -RA OVC035=



000
FTUS46 KPQR 241138
TAFSLE
TAF
KSLE 241138Z 2412/2512 16004KT P6SM SCT030 OVC045
     FM241500 17008KT P6SM BKN050
     FM250000 18012KT P6SM -RA OVC050=



000
FTUS46 KPQR 241138
TAFHIO
TAF
KHIO 241138Z 2412/2512 00000KT 1SM BR VV004
      TEMPO 2415/2417 1/2SM FG VV002
     FM242100 17003KT 2SM BR BKN007
     FM250000 19007KT 4SM -RA BR OVC007=



000
FTUS46 KPQR 241138
TAFONP
TAF
KONP 241138Z 2412/2512 11005KT P6SM BKN250
     FM241400 15008KT 1SM BR BKN003 OVC015
     FM241900 17012G21KT 3SM BR SCT030 BKN070
     FM242100 19018G25KT 2SM -RA BR BKN025 OVC060=



000
FTUS46 KPQR 241138
TAFEUG
TAF
KEUG 241138Z 2412/2512 18009KT P6SM BKN250
     FM250000 18012KT P6SM -RA OVC050=



000
FTUS46 KPQR 241138
TAFTTD
TAF
KTTD 241138Z 2412/2512 00000KT 6SM BR BKN015 OVC025
     FM241300 09003KT 3SM BR BKN007 OVC015
     FM241800 09006KT P6SM FEW007 BKN020
     FM250200 22005KT 5SM -RA BR OVC050=



000
FTUS46 KPQR 241138
TAFONP
TAF
KONP 241138Z 2412/2512 11005KT P6SM BKN250
     FM241400 15008KT 1SM BR BKN003 OVC015
     FM241900 17012G21KT 3SM BR SCT030 BKN070
     FM242100 19018G25KT 2SM -RA BR BKN025 OVC060=



000
FTUS46 KPQR 241138
TAFHIO
TAF
KHIO 241138Z 2412/2512 00000KT 1SM BR VV004
      TEMPO 2415/2417 1/2SM FG VV002
     FM242100 17003KT 2SM BR BKN007
     FM250000 19007KT 4SM -RA BR OVC007=



000
FTUS46 KPQR 241138
TAFSLE
TAF
KSLE 241138Z 2412/2512 16004KT P6SM SCT030 OVC045
     FM241500 17008KT P6SM BKN050
     FM250000 18012KT P6SM -RA OVC050=



000
FTUS46 KPQR 241138
TAFAST
TAF
KAST 241138Z 2412/2512 00000KT 1/2SM FG VV003
     FM241700 15005KT 1 1/2SM BR SCT005 OVC030
     FM241900 16010KT 5SM BR OVC035
     FM242100 20017G24KT 4SM -RA BR OVC020=



000
FTUS46 KPQR 241138
TAFPDX
TAF
KPDX 241138Z 2412/2512 13003KT P6SM BKN012 OVC035
     FM241400 13003KT 4SM BR BKN007 OVC012
     FM241700 15006KT P6SM SCT009 BKN015
     FM242100 15008KT P6SM BKN050 OVC080
     FM250000 17009KT P6SM -RA OVC035=



000
FTUS46 KPQR 240957 AAB
TAFONP
TAF AMD
KONP 240957Z 2410/2506 16006KT P6SM SCT025
     FM241200 14007KT 3SM BR FEW003 SCT010 BKN070
     FM241400 15008KT 1SM BR BKN005 OVC015
     FM241700 17012G21KT 3SM BR SCT030 BKN060
     FM250000 19018G25KT 3SM -RA BR BKN025 OVC060=



000
FTUS46 KPQR 240949 AAB
TAFTTD
TAF AMD
KTTD 240949Z 2410/2506 10003KT 3SM BR BKN015 OVC025
     FM241300 09004KT 3SM BR BKN007 OVC015
     FM241700 09006KT P6SM BKN060
     FM250300 22005KT 5SM -RA BR OVC050=



000
FTUS46 KPQR 240949 AAB
TAFTTD
TAF AMD
KTTD 240949Z 2410/2506 10003KT 3SM BR BKN015 OVC025
     FM241300 09004KT 3SM BR BKN007 OVC015
     FM241700 09006KT P6SM BKN060
     FM250300 22005KT 5SM -RA BR OVC050=



000
FTUS46 KPQR 240949 AAB
TAFTTD
TAF AMD
KTTD 240949Z 2410/2506 10003KT 3SM BR BKN015 OVC025
     FM241300 09004KT 3SM BR BKN007 OVC015
     FM241700 09006KT P6SM BKN060
     FM250300 22005KT 5SM -RA BR OVC050=



000
FTUS46 KPQR 240949 AAB
TAFTTD
TAF AMD
KTTD 240949Z 2410/2506 10003KT 3SM BR BKN015 OVC025
     FM241300 09004KT 3SM BR BKN007 OVC015
     FM241700 09006KT P6SM BKN060
     FM250300 22005KT 5SM -RA BR OVC050=



000
FTUS46 KPQR 240946 AAA
TAFEUG
TAF AMD
KEUG 240946Z 2410/2506 16007KT P6SM FEW002 BKN250
     FM241100 16004KT 2SM BR BKN002 BKN250
     FM241800 16007KT 4SM BR OVC070
     FM242000 19008KT P6SM BKN060=



000
FTUS46 KPQR 240946 AAA
TAFEUG
TAF AMD
KEUG 240946Z 2410/2506 16007KT P6SM FEW002 BKN250
     FM241100 16004KT 2SM BR BKN002 BKN250
     FM241800 16007KT 4SM BR OVC070
     FM242000 19008KT P6SM BKN060=



000
FTUS46 KPQR 240946 AAA
TAFEUG
TAF AMD
KEUG 240946Z 2410/2506 16007KT P6SM FEW002 BKN250
     FM241100 16004KT 2SM BR BKN002 BKN250
     FM241800 16007KT 4SM BR OVC070
     FM242000 19008KT P6SM BKN060=



000
FTUS46 KPQR 240946 AAA
TAFEUG
TAF AMD
KEUG 240946Z 2410/2506 16007KT P6SM FEW002 BKN250
     FM241100 16004KT 2SM BR BKN002 BKN250
     FM241800 16007KT 4SM BR OVC070
     FM242000 19008KT P6SM BKN060=



000
FTUS46 KPQR 240909 AAB
TAFPDX
TAF AMD
KPDX 240909Z 2409/2506 18003KT 5SM BR BKN010 OVC040
     FM241100 13003KT 2SM BR BKN007 OVC030
     FM241700 13005KT P6SM BKN080
     FM242100 14008KT P6SM BKN050 OVC080
     FM250300 17009KT P6SM -RA OVC035=



000
FTUS46 KPQR 240905 AAA
TAFSLE
TAF AMD
KSLE 240905Z 2409/2506 VRB03KT P6SM SCT010 OVC040
     FM241100 16004KT 4SM BR BKN007 OVC020
     FM241700 17008KT P6SM SCT007 BKN060=



000
FTUS46 KPQR 240740 AAA
TAFTTD
TAF AMD
KTTD 240740Z 2408/2506 10003KT 1SM BR BKN015 OVC025
     FM241700 09006KT P6SM BKN060
     FM250300 22005KT 5SM -RA BR OVC050=



000
FTUS46 KPQR 240740 AAA
TAFTTD
TAF AMD
KTTD 240740Z 2408/2506 10003KT 1SM BR BKN015 OVC025
     FM241700 09006KT P6SM BKN060
     FM250300 22005KT 5SM -RA BR OVC050=



000
FTUS46 KPQR 240642 AAA
TAFONP
TAF AMD
KONP 240642Z 2407/2506 20007KT 3SM BR VCSH BKN005 BKN015 OVC020
     FM241000 16006KT 1SM BR BKN002 OVC009
     FM241700 17012G21KT 3SM BR SCT030 BKN060
     FM250000 19018G25KT 3SM -RA BR BKN025 OVC060=



000
FTUS46 KPQR 240642 AAA
TAFONP
TAF AMD
KONP 240642Z 2407/2506 20007KT 3SM BR VCSH BKN005 BKN015 OVC020
     FM241000 16006KT 1SM BR BKN002 OVC009
     FM241700 17012G21KT 3SM BR SCT030 BKN060
     FM250000 19018G25KT 3SM -RA BR BKN025 OVC060=



000
FTUS46 KPQR 240635 AAA
TAFHIO
TAF AMD
KHIO 240635Z 2407/2506 00000KT 1SM HZ OVC004
     FM240900 00000KT 1/2SM FG VV002
     FM242100 17003KT 5SM BR BKN007
     FM242300 18006KT P6SM SCT070
     FM250200 19007KT 2SM -RA BR OVC035=



000
FTUS46 KPQR 240635 AAA
TAFHIO
TAF AMD
KHIO 240635Z 2407/2506 00000KT 1SM HZ OVC004
     FM240900 00000KT 1/2SM FG VV002
     FM242100 17003KT 5SM BR BKN007
     FM242300 18006KT P6SM SCT070
     FM250200 19007KT 2SM -RA BR OVC035=



000
FTUS46 KPQR 240625 AAA
TAFPDX
TAF AMD
KPDX 240625Z 2406/2506 20006KT 5SM BR BKN015 OVC050
     FM240900 18003KT 2SM BR BKN007 OVC050
     FM241700 13005KT P6SM BKN080
     FM242100 14008KT P6SM BKN050 OVC080
     FM250300 17009KT P6SM -RA OVC035=



000
FTUS46 KPQR 240536
TAFPDX
TAF
KPDX 240536Z 2406/2506 20006KT P6SM FEW035 BKN050 OVC070
     FM240700 18003KT 4SM BR SCT007
     FM241700 13005KT P6SM BKN080
     FM242100 14008KT P6SM BKN050 OVC080
     FM250300 17009KT P6SM -RA OVC035=



000
FTUS46 KPQR 240536
TAFONP
TAF
KONP 240536Z 2406/2506 20007KT 4SM BR VCSH SCT003 BKN020
     FM240800 16006KT 2SM BR SCT002 BKN009
     FM241700 17012G21KT 3SM BR SCT030 BKN060
     FM250000 19018G25KT 3SM -RA BR BKN025 OVC060=



000
FTUS46 KPQR 240536
TAFSLE
TAF
KSLE 240536Z 2406/2506 17006KT P6SM SCT010 BKN050
     FM240800 16004KT 4SM BR BKN007
     FM241700 17008KT P6SM SCT007 BKN060=



000
FTUS46 KPQR 240536
TAFONP
TAF
KONP 240536Z 2406/2506 20007KT 4SM BR VCSH SCT003 BKN020
     FM240800 16006KT 2SM BR SCT002 BKN009
     FM241700 17012G21KT 3SM BR SCT030 BKN060
     FM250000 19018G25KT 3SM -RA BR BKN025 OVC060=



000
FTUS46 KPQR 240536
TAFTTD
TAF
KTTD 240536Z 2406/2506 VRB03KT 3SM BR BKN015 BKN050 OVC070
     FM240700 10003KT 5SM BR SCT007 SCT050
     FM241700 09006KT P6SM BKN060
     FM250300 22005KT 5SM -RA BR OVC050=



000
FTUS46 KPQR 240536
TAFAST
TAF
KAST 240536Z 2406/2506 VRB03KT 1/2SM FG OVC010
     FM241700 14006KT 1 1/2SM BR OVC030
     FM241900 16010KT 5SM BR OVC030
     FM242100 20017G24KT 4SM -RA BR OVC015=



000
FTUS46 KPQR 240536
TAFEUG
TAF
KEUG 240536Z 2406/2506 18006KT 6SM BR VCSH FEW030 BKN040 OVC080
     FM240800 16004KT 1SM BR BKN004
     FM241800 16007KT 4SM BR OVC070
     FM242000 19008KT P6SM BKN060=



000
FTUS46 KPQR 240536
TAFHIO
TAF
KHIO 240536Z 2406/2506 00000KT 2SM BR BKN008
     FM241000 VRB03KT 1/2SM FG BKN004
     FM242100 17003KT 5SM BR BKN007
     FM242300 18006KT P6SM SCT070
     FM250200 19007KT 2SM -RA BR OVC035=



000
FTUS46 KPQR 240536
TAFSLE
TAF
KSLE 240536Z 2406/2506 17006KT P6SM SCT010 BKN050
     FM240800 16004KT 4SM BR BKN007
     FM241700 17008KT P6SM SCT007 BKN060=



000
FTUS46 KPQR 240536
TAFEUG
TAF
KEUG 240536Z 2406/2506 18006KT 6SM BR VCSH FEW030 BKN040 OVC080
     FM240800 16004KT 1SM BR BKN004
     FM241800 16007KT 4SM BR OVC070
     FM242000 19008KT P6SM BKN060=



000
FTUS46 KPQR 240536
TAFPDX
TAF
KPDX 240536Z 2406/2506 20006KT P6SM FEW035 BKN050 OVC070
     FM240700 18003KT 4SM BR SCT007
     FM241700 13005KT P6SM BKN080
     FM242100 14008KT P6SM BKN050 OVC080
     FM250300 17009KT P6SM -RA OVC035=



000
FTUS46 KPQR 240536
TAFHIO
TAF
KHIO 240536Z 2406/2506 00000KT 2SM BR BKN008
     FM241000 VRB03KT 1/2SM FG BKN004
     FM242100 17003KT 5SM BR BKN007
     FM242300 18006KT P6SM SCT070
     FM250200 19007KT 2SM -RA BR OVC035=



000
FTUS46 KPQR 240536
TAFAST
TAF
KAST 240536Z 2406/2506 VRB03KT 1/2SM FG OVC010
     FM241700 14006KT 1 1/2SM BR OVC030
     FM241900 16010KT 5SM BR OVC030
     FM242100 20017G24KT 4SM -RA BR OVC015=



000
FTUS46 KPQR 240536
TAFTTD
TAF
KTTD 240536Z 2406/2506 VRB03KT 3SM BR BKN015 BKN050 OVC070
     FM240700 10003KT 5SM BR SCT007 SCT050
     FM241700 09006KT P6SM BKN060
     FM250300 22005KT 5SM -RA BR OVC050=



000
FTUS46 KPQR 240437 AAB
TAFAST
TAF AMD
KAST 240437Z 2405/2424 VRB03KT 1/2SM FG OVC010
     FM240900 13003KT 5SM BR FEW002 SCT050
     FM241700 13005KT P6SM BKN060
     FM242200 17010KT 5SM -RA BKN025 OVC050=



000
FTUS46 KPQR 240437 AAB
TAFAST
TAF AMD
KAST 240437Z 2405/2424 VRB03KT 1/2SM FG OVC010
     FM240900 13003KT 5SM BR FEW002 SCT050
     FM241700 13005KT P6SM BKN060
     FM242200 17010KT 5SM -RA BKN025 OVC050=



000
FTUS46 KPQR 240326 AAA
TAFAST
TAF AMD
KAST 240326Z 2403/2424 VRB03KT 1SM MIFG SCT010
     FM240600 00000KT 1/2SM FG OVC008
     FM240900 13003KT 5SM BR FEW002 SCT050
     FM241700 13005KT P6SM BKN060
     FM242200 17010KT 5SM -RA BKN025 OVC050=



000
FTUS46 KPQR 240326 AAA
TAFAST
TAF AMD
KAST 240326Z 2403/2424 VRB03KT 1SM MIFG SCT010
     FM240600 00000KT 1/2SM FG OVC008
     FM240900 13003KT 5SM BR FEW002 SCT050
     FM241700 13005KT P6SM BKN060
     FM242200 17010KT 5SM -RA BKN025 OVC050=



000
FTUS46 KPQR 240326 AAA
TAFAST
TAF AMD
KAST 240326Z 2403/2424 VRB03KT 1SM MIFG SCT010
     FM240600 00000KT 1/2SM FG OVC008
     FM240900 13003KT 5SM BR FEW002 SCT050
     FM241700 13005KT P6SM BKN060
     FM242200 17010KT 5SM -RA BKN025 OVC050=



000
FTUS46 KPQR 240326 AAA
TAFAST
TAF AMD
KAST 240326Z 2403/2424 VRB03KT 1SM MIFG SCT010
     FM240600 00000KT 1/2SM FG OVC008
     FM240900 13003KT 5SM BR FEW002 SCT050
     FM241700 13005KT P6SM BKN060
     FM242200 17010KT 5SM -RA BKN025 OVC050=



000
FTUS46 KPQR 240256 AAA
TAFPDX
TAF AMD
KPDX 240256Z 2403/2424 20006KT P6SM FEW035 BKN050 OVC070
     FM240700 18003KT 4SM BR SCT007 SCT050
     FM241700 12005KT P6SM BKN080
     FM242100 12008KT P6SM -RA BKN050 OVC080=



000
FTUS46 KPQR 240256 AAA
TAFPDX
TAF AMD
KPDX 240256Z 2403/2424 20006KT P6SM FEW035 BKN050 OVC070
     FM240700 18003KT 4SM BR SCT007 SCT050
     FM241700 12005KT P6SM BKN080
     FM242100 12008KT P6SM -RA BKN050 OVC080=



000
FTUS46 KPQR 240202 AAC
TAFSLE
TAF AMD
KSLE 240202Z 2402/2424 19006KT P6SM -RA FEW050 BKN060
     FM240500 17003KT P6SM SCT030 SCT050
     FM240900 16004KT 4SM BR BKN007
     FM241700 17008KT P6SM SCT007 BKN080
     FM242200 18012KT 6SM -RA BKN050 OVC080=



000
FTUS46 KPQR 240202 AAC
TAFSLE
TAF AMD
KSLE 240202Z 2402/2424 19006KT P6SM -RA FEW050 BKN060
     FM240500 17003KT P6SM SCT030 SCT050
     FM240900 16004KT 4SM BR BKN007
     FM241700 17008KT P6SM SCT007 BKN080
     FM242200 18012KT 6SM -RA BKN050 OVC080=



000
FTUS46 KPQR 240016 AAB
TAFSLE
TAF AMD
KSLE 240016Z 2400/2424 19012KT P6SM VCTS BKN030CB BKN060
      TEMPO 2400/2401 34015G22KT 3SM TSRA
     FM240100 19010KT 4SM -RA BR BKN030 BKN050
     FM240500 17003KT P6SM SCT030 SCT050
     FM240900 16004KT 4SM BR BKN007
     FM241700 17008KT P6SM SCT007 BKN080
     FM242200 18012KT 6SM -RA BKN050 OVC080=



000
FTUS46 KPQR 240016 AAB
TAFSLE
TAF AMD
KSLE 240016Z 2400/2424 19012KT P6SM VCTS BKN030CB BKN060
      TEMPO 2400/2401 34015G22KT 3SM TSRA
     FM240100 19010KT 4SM -RA BR BKN030 BKN050
     FM240500 17003KT P6SM SCT030 SCT050
     FM240900 16004KT 4SM BR BKN007
     FM241700 17008KT P6SM SCT007 BKN080
     FM242200 18012KT 6SM -RA BKN050 OVC080=



000
FTUS46 KPQR 240002 AAA
TAFSLE
TAF AMD
KSLE 240002Z 2400/2424 19012KT P6SM VCTS SCT030CB BKN060
      TEMPO 2400/2401 34015G22KT 3SM TSRA
     FM240100 19010KT 4SM -RA BR BKN030 BKN050
     FM240500 17003KT P6SM SCT030 SCT050
     FM240900 16004KT 4SM BR BKN007
     FM241700 17008KT P6SM SCT007 BKN080
     FM242200 18012KT 6SM -RA BKN050 OVC080=



000
FTUS46 KPQR 240002 AAA
TAFSLE
TAF AMD
KSLE 240002Z 2400/2424 19012KT P6SM VCTS SCT030CB BKN060
      TEMPO 2400/2401 34015G22KT 3SM TSRA
     FM240100 19010KT 4SM -RA BR BKN030 BKN050
     FM240500 17003KT P6SM SCT030 SCT050
     FM240900 16004KT 4SM BR BKN007
     FM241700 17008KT P6SM SCT007 BKN080
     FM242200 18012KT 6SM -RA BKN050 OVC080=



000
FTUS46 KPQR 232331
TAFSLE
TAF
KSLE 232331Z 2400/2424 19012KT P6SM SCT030 BKN060
     FM240100 19010KT 4SM -RA BR BKN030 BKN050
     FM240500 17003KT P6SM SCT030 SCT050
     FM240900 16004KT 4SM BR BKN007
     FM241700 17008KT P6SM SCT007 BKN080
     FM242200 18012KT 6SM -RA BKN050 OVC080=



000
FTUS46 KPQR 232331
TAFEUG
TAF
KEUG 232331Z 2400/2424 18006KT 6SM BR FEW030 SCT050
     FM240700 17004KT 1SM BR BKN004
     FM241700 17005KT 4SM BR BKN007
     FM242000 19008KT P6SM BKN080
     FM242300 19010KT 6SM -RA BKN025 OVC080=



000
FTUS46 KPQR 232331
TAFTTD
TAF
KTTD 232331Z 2400/2424 21005KT P6SM VCSH SCT025 BKN050
     FM240700 10003KT 5SM BR SCT007 SCT050
     FM241700 09006KT P6SM BKN080=



000
FTUS46 KPQR 232331
TAFPDX
TAF
KPDX 232331Z 2400/2424 20006KT P6SM VCSH SCT025 BKN050
     FM240700 18003KT 4SM BR SCT007 SCT050
     FM241700 12005KT P6SM BKN080
     FM242100 12008KT P6SM -RA BKN050 OVC080=



000
FTUS46 KPQR 232331
TAFONP
TAF
KONP 232331Z 2400/2424 21012KT 5SM -SHRA SCT015 BKN030
     FM240400 20007KT 4SM BR FEW002 SCT030
     FM241700 15008KT 4SM BR SCT030 BKN060
     FM242100 18012G20KT 4SM -RA BR BKN025 OVC060=



000
FTUS46 KPQR 232331
TAFHIO
TAF
KHIO 232331Z 2400/2424 18006KT P6SM -SHRA SCT007 BKN025 BKN050
     FM240600 18003KT 4SM BR BKN007
     FM241000 VRB03KT 1SM BR BKN004
     FM241700 16003KT P6SM SCT007 BKN015
     FM242100 18005KT P6SM -RA BKN015 BKN050=



000
FTUS46 KPQR 232331
TAFAST
TAF
KAST 232331Z 2400/2424 27005KT P6SM VCSH SCT050
     FM240900 13003KT 5SM BR FEW002 SCT050
     FM241700 13005KT P6SM BKN060
     FM242200 17010KT 5SM -RA BKN025 OVC050=



000
FTUS46 KPQR 232331
TAFPDX
TAF
KPDX 232331Z 2400/2424 20006KT P6SM VCSH SCT025 BKN050
     FM240700 18003KT 4SM BR SCT007 SCT050
     FM241700 12005KT P6SM BKN080
     FM242100 12008KT P6SM -RA BKN050 OVC080=



000
FTUS46 KPQR 232331
TAFHIO
TAF
KHIO 232331Z 2400/2424 18006KT P6SM -SHRA SCT007 BKN025 BKN050
     FM240600 18003KT 4SM BR BKN007
     FM241000 VRB03KT 1SM BR BKN004
     FM241700 16003KT P6SM SCT007 BKN015
     FM242100 18005KT P6SM -RA BKN015 BKN050=



000
FTUS46 KPQR 232331
TAFAST
TAF
KAST 232331Z 2400/2424 27005KT P6SM VCSH SCT050
     FM240900 13003KT 5SM BR FEW002 SCT050
     FM241700 13005KT P6SM BKN060
     FM242200 17010KT 5SM -RA BKN025 OVC050=



000
FTUS46 KPQR 232331
TAFTTD
TAF
KTTD 232331Z 2400/2424 21005KT P6SM VCSH SCT025 BKN050
     FM240700 10003KT 5SM BR SCT007 SCT050
     FM241700 09006KT P6SM BKN080=



000
FTUS46 KPQR 232331
TAFEUG
TAF
KEUG 232331Z 2400/2424 18006KT 6SM BR FEW030 SCT050
     FM240700 17004KT 1SM BR BKN004
     FM241700 17005KT 4SM BR BKN007
     FM242000 19008KT P6SM BKN080
     FM242300 19010KT 6SM -RA BKN025 OVC080=



000
FTUS46 KPQR 232331
TAFONP
TAF
KONP 232331Z 2400/2424 21012KT 5SM -SHRA SCT015 BKN030
     FM240400 20007KT 4SM BR FEW002 SCT030
     FM241700 15008KT 4SM BR SCT030 BKN060
     FM242100 18012G20KT 4SM -RA BR BKN025 OVC060=



000
FTUS46 KPQR 232331
TAFSLE
TAF
KSLE 232331Z 2400/2424 19012KT P6SM SCT030 BKN060
     FM240100 19010KT 4SM -RA BR BKN030 BKN050
     FM240500 17003KT P6SM SCT030 SCT050
     FM240900 16004KT 4SM BR BKN007
     FM241700 17008KT P6SM SCT007 BKN080
     FM242200 18012KT 6SM -RA BKN050 OVC080=



000
FTUS46 KPQR 232123 AAA
TAFEUG
TAF AMD
KEUG 232123Z 2321/2418 17008KT P6SM SCT025 BKN050
     FM240000 18006KT 6SM BR FEW030 SCT050
     FM240800 17004KT 1SM BR BKN004=



000
FTUS46 KPQR 232123 AAA
TAFEUG
TAF AMD
KEUG 232123Z 2321/2418 17008KT P6SM SCT025 BKN050
     FM240000 18006KT 6SM BR FEW030 SCT050
     FM240800 17004KT 1SM BR BKN004=



000
FTUS46 KPQR 232123 AAA
TAFEUG
TAF AMD
KEUG 232123Z 2321/2418 17008KT P6SM SCT025 BKN050
     FM240000 18006KT 6SM BR FEW030 SCT050
     FM240800 17004KT 1SM BR BKN004=



000
FTUS46 KPQR 232123 AAA
TAFEUG
TAF AMD
KEUG 232123Z 2321/2418 17008KT P6SM SCT025 BKN050
     FM240000 18006KT 6SM BR FEW030 SCT050
     FM240800 17004KT 1SM BR BKN004=



000
FTUS46 KPQR 232122 AAC
TAFPDX
TAF AMD
KPDX 232122Z 2321/2418 19015G25KT P6SM -SHRA SCT025 OVC050
      TEMPO 2321/2323 5SM TSRA BKN025 BKN040CB
     FM232300 20007KT P6SM VCSH SCT025 BKN050
     FM240600 18003KT 5SM BR FEW010 BKN030=



000
FTUS46 KPQR 232122 AAC
TAFPDX
TAF AMD
KPDX 232122Z 2321/2418 19015G25KT P6SM -SHRA SCT025 OVC050
      TEMPO 2321/2323 5SM TSRA BKN025 BKN040CB
     FM232300 20007KT P6SM VCSH SCT025 BKN050
     FM240600 18003KT 5SM BR FEW010 BKN030=



000
FTUS46 KPQR 232122 AAC
TAFPDX
TAF AMD
KPDX 232122Z 2321/2418 19015G25KT P6SM -SHRA SCT025 OVC050
      TEMPO 2321/2323 5SM TSRA BKN025 BKN040CB
     FM232300 20007KT P6SM VCSH SCT025 BKN050
     FM240600 18003KT 5SM BR FEW010 BKN030=



000
FTUS46 KPQR 232121 AAB
TAFTTD
TAF AMD
KTTD 232121Z 2321/2418 24012G20KT P6SM -SHRA SCT025 BKN050 OVC080
      TEMPO 2321/2323 4SM TSRA BKN025 BKN040CB
     FM232300 21005KT P6SM VCSH SCT025 BKN050
     FM240600 10003KT 5SM BR FEW010 BKN030=



000
FTUS46 KPQR 232121 AAB
TAFTTD
TAF AMD
KTTD 232121Z 2321/2418 24012G20KT P6SM -SHRA SCT025 BKN050 OVC080
      TEMPO 2321/2323 4SM TSRA BKN025 BKN040CB
     FM232300 21005KT P6SM VCSH SCT025 BKN050
     FM240600 10003KT 5SM BR FEW010 BKN030=



000
FTUS46 KPQR 232121 AAB
TAFTTD
TAF AMD
KTTD 232121Z 2321/2418 24012G20KT P6SM -SHRA SCT025 BKN050 OVC080
      TEMPO 2321/2323 4SM TSRA BKN025 BKN040CB
     FM232300 21005KT P6SM VCSH SCT025 BKN050
     FM240600 10003KT 5SM BR FEW010 BKN030=



000
FTUS46 KPQR 232121 AAB
TAFTTD
TAF AMD
KTTD 232121Z 2321/2418 24012G20KT P6SM -SHRA SCT025 BKN050 OVC080
      TEMPO 2321/2323 4SM TSRA BKN025 BKN040CB
     FM232300 21005KT P6SM VCSH SCT025 BKN050
     FM240600 10003KT 5SM BR FEW010 BKN030=



000
FTUS46 KPQR 232120 AAB
TAFHIO
TAF AMD
KHIO 232120Z 2321/2418 36008KT P6SM -SHRA SCT025 BKN050 OVC080
      TEMPO 2321/2323 TSRA BKN015 BKN040CB
     FM232300 19006KT P6SM -SHRA SCT025 BKN050
     FM240000 21005KT P6SM VCSH SCT025 BKN050
     FM240600 18003KT 5SM BR FEW010 BKN030
     FM240900 VRB03KT 1SM BR BKN004=



000
FTUS46 KPQR 232120 AAB
TAFHIO
TAF AMD
KHIO 232120Z 2321/2418 36008KT P6SM -SHRA SCT025 BKN050 OVC080
      TEMPO 2321/2323 TSRA BKN015 BKN040CB
     FM232300 19006KT P6SM -SHRA SCT025 BKN050
     FM240000 21005KT P6SM VCSH SCT025 BKN050
     FM240600 18003KT 5SM BR FEW010 BKN030
     FM240900 VRB03KT 1SM BR BKN004=



000
FTUS46 KPQR 232120 AAB
TAFHIO
TAF AMD
KHIO 232120Z 2321/2418 36008KT P6SM -SHRA SCT025 BKN050 OVC080
      TEMPO 2321/2323 TSRA BKN015 BKN040CB
     FM232300 19006KT P6SM -SHRA SCT025 BKN050
     FM240000 21005KT P6SM VCSH SCT025 BKN050
     FM240600 18003KT 5SM BR FEW010 BKN030
     FM240900 VRB03KT 1SM BR BKN004=



000
FTUS46 KPQR 232120 AAB
TAFHIO
TAF AMD
KHIO 232120Z 2321/2418 36008KT P6SM -SHRA SCT025 BKN050 OVC080
      TEMPO 2321/2323 TSRA BKN015 BKN040CB
     FM232300 19006KT P6SM -SHRA SCT025 BKN050
     FM240000 21005KT P6SM VCSH SCT025 BKN050
     FM240600 18003KT 5SM BR FEW010 BKN030
     FM240900 VRB03KT 1SM BR BKN004=



000
FTUS46 KPQR 232007 AAA
TAFSLE
TAF AMD
KSLE 232007Z 2320/2418 18013G20KT P6SM -SHRA SCT030 BKN050
      TEMPO 2320/2323 SHRA BKN030
     FM232300 19009KT P6SM SCT030 BKN050
     FM240900 17003KT 1SM BR BKN004=



000
FTUS46 KPQR 232007 AAA
TAFSLE
TAF AMD
KSLE 232007Z 2320/2418 18013G20KT P6SM -SHRA SCT030 BKN050
      TEMPO 2320/2323 SHRA BKN030
     FM232300 19009KT P6SM SCT030 BKN050
     FM240900 17003KT 1SM BR BKN004=



000
FTUS46 KPQR 232005 AAB
TAFPDX
TAF AMD
KPDX 232005Z 2320/2418 19015G25KT P6SM -SHRA SCT025 OVC050
      TEMPO 2320/2323 SHRA BKN025
     FM232300 20007KT P6SM VCSH SCT025 BKN050
     FM240600 18003KT 5SM BR FEW010 BKN030=



000
FTUS46 KPQR 232005 AAB
TAFPDX
TAF AMD
KPDX 232005Z 2320/2418 19015G25KT P6SM -SHRA SCT025 OVC050
      TEMPO 2320/2323 SHRA BKN025
     FM232300 20007KT P6SM VCSH SCT025 BKN050
     FM240600 18003KT 5SM BR FEW010 BKN030=



000
FTUS46 KPQR 232004 AAA
TAFONP
TAF AMD
KONP 232004Z 2320/2418 19013G22KT 5SM -SHRA BR FEW015 SCT025 BKN050
     FM232300 21005KT P6SM VCSH FEW008 SCT015 BKN030
     FM240900 10003KT 4SM BR FEW002 SCT030=



000
FTUS46 KPQR 232004 AAA
TAFONP
TAF AMD
KONP 232004Z 2320/2418 19013G22KT 5SM -SHRA BR FEW015 SCT025 BKN050
     FM232300 21005KT P6SM VCSH FEW008 SCT015 BKN030
     FM240900 10003KT 4SM BR FEW002 SCT030=



000
FTUS46 KPQR 232001 AAA
TAFTTD
TAF AMD
KTTD 232001Z 2320/2418 22012G20KT P6SM -SHRA SCT025 BKN050 OVC080
      TEMPO 2320/2324 SHRA BKN025
     FM240000 21005KT P6SM VCSH SCT025 BKN050
     FM240600 10003KT 5SM BR FEW010 BKN030=



000
FTUS46 KPQR 231948 AAA
TAFHIO
TAF AMD
KHIO 231948Z 2320/2418 19013G22KT P6SM -SHRA SCT025 BKN050 OVC080
      TEMPO 2320/2322 SHRA BKN025
     FM232200 19008KT P6SM -SHRA SCT025 BKN050
     FM240000 21005KT P6SM VCSH SCT025 BKN050
     FM240600 18003KT 5SM BR FEW010 BKN030
     FM240900 VRB03KT 1SM BR BKN004=



000
FTUS46 KPQR 231938 AAA
TAFPDX
TAF AMD
KPDX 231938Z 2320/2418 19015G25KT P6SM -SHRA SCT025 OVC050
      TEMPO 2320/2322 SHRA BKN025
     FM232200 19008KT 6SM SHRA BR BKN025 OVC050
     FM240000 21005KT P6SM VCSH SCT025 BKN050
     FM240600 18003KT 5SM BR FEW010 BKN030=



000
FTUS46 KPQR 231938 AAA
TAFPDX
TAF AMD
KPDX 231938Z 2320/2418 19015G25KT P6SM -SHRA SCT025 OVC050
      TEMPO 2320/2322 SHRA BKN025
     FM232200 19008KT 6SM SHRA BR BKN025 OVC050
     FM240000 21005KT P6SM VCSH SCT025 BKN050
     FM240600 18003KT 5SM BR FEW010 BKN030=



000
FTUS46 KPQR 231847 AAB
TAFAST
TAF AMD
KAST 231847Z 2319/2418 23016G27KT P6SM VCTS SCT025 OVC040CB
      TEMPO 2319/2320 22023G38KT 4SM TSRA BKN025 BKN040CB
     FM232000 25010G18KT 6SM -SHRA BR SCT025 BKN050
     FM240100 27005KT P6SM VCSH FEW015 SCT030
     FM240900 13003KT 5SM BR FEW002 SCT030=



000
FTUS46 KPQR 231847 AAB
TAFAST
TAF AMD
KAST 231847Z 2319/2418 23016G27KT P6SM VCTS SCT025 OVC040CB
      TEMPO 2319/2320 22023G38KT 4SM TSRA BKN025 BKN040CB
     FM232000 25010G18KT 6SM -SHRA BR SCT025 BKN050
     FM240100 27005KT P6SM VCSH FEW015 SCT030
     FM240900 13003KT 5SM BR FEW002 SCT030=



000
FTUS46 KPQR 231839 AAA
TAFAST
TAF AMD
KAST 231839Z 2319/2418 23016G27KT P6SM VCTS SCT025 OVC040CB
      TEMPO 2319/2320 4SM TSRA BKN025 BKN040CB
     FM232000 25010G18KT 6SM -SHRA BR SCT025 BKN050
     FM240100 27005KT P6SM VCSH FEW015 SCT030
     FM240900 13003KT 5SM BR FEW002 SCT030=



000
FTUS46 KPQR 231839 AAA
TAFAST
TAF AMD
KAST 231839Z 2319/2418 23016G27KT P6SM VCTS SCT025 OVC040CB
      TEMPO 2319/2320 4SM TSRA BKN025 BKN040CB
     FM232000 25010G18KT 6SM -SHRA BR SCT025 BKN050
     FM240100 27005KT P6SM VCSH FEW015 SCT030
     FM240900 13003KT 5SM BR FEW002 SCT030=



000
FTUS46 KPQR 231747
TAFAST
TAF
KAST 231747Z 2318/2418 23016G27KT 3SM RA BR BKN025 OVC040
     FM232000 25010G18KT 6SM -SHRA BR SCT025 BKN050
     FM240100 27005KT P6SM VCSH FEW015 SCT030
     FM240900 13003KT 5SM BR FEW002 SCT030=



000
FTUS46 KPQR 231747
TAFONP
TAF
KONP 231747Z 2318/2418 19010G18KT 5SM -SHRA BR FEW008 SCT025 BKN050
     FM232300 21005KT P6SM VCSH FEW008 SCT015 BKN030
     FM240900 10003KT 4SM BR FEW002 SCT030=



000
FTUS46 KPQR 231747
TAFHIO
TAF
KHIO 231747Z 2318/2418 18011KT 6SM SHRA SCT025 OVC050
     FM232000 30008KT P6SM -SHRA BKN025 OVC050
     FM240000 21005KT P6SM VCSH SCT025 BKN050
     FM240600 18003KT 5SM BR FEW010 BKN030
     FM240900 VRB03KT 1SM BR BKN004=



000
FTUS46 KPQR 231747
TAFPDX
TAF
KPDX 231747Z 2318/2418 19009KT P6SM -SHRA SCT025 OVC050
     FM232100 30008KT 6SM SHRA BR BKN025 OVC050
     FM240000 21005KT P6SM VCSH SCT025 BKN050
     FM240600 18003KT 5SM BR FEW010 BKN030=



000
FTUS46 KPQR 231747
TAFTTD
TAF
KTTD 231747Z 2318/2418 22009KT 6SM SHRA SCT025 OVC050
     FM232000 28008KT P6SM -SHRA BKN025 OVC050
     FM240000 21005KT P6SM VCSH SCT025 BKN050
     FM240600 10003KT 5SM BR FEW010 BKN030=



000
FTUS46 KPQR 231747
TAFEUG
TAF
KEUG 231747Z 2318/2418 17008KT P6SM SCT025 BKN050
     FM232100 19007KT P6SM -RA BKN030 OVC050
     FM240000 18006KT 6SM BR FEW030 SCT050
     FM240800 17004KT 1SM BR BKN004=



000
FTUS46 KPQR 231747
TAFSLE
TAF
KSLE 231747Z 2318/2418 18012KT P6SM SCT025 BKN050
     FM232000 17010KT 6SM -RA BR BKN030 OVC050
     FM232300 19009KT P6SM SCT030 BKN050
     FM240900 17003KT 1SM BR BKN004=



000
FTUS46 KPQR 231747
TAFAST
TAF
KAST 231747Z 2318/2418 23016G27KT 3SM RA BR BKN025 OVC040
     FM232000 25010G18KT 6SM -SHRA BR SCT025 BKN050
     FM240100 27005KT P6SM VCSH FEW015 SCT030
     FM240900 13003KT 5SM BR FEW002 SCT030=



000
FTUS46 KPQR 231747
TAFONP
TAF
KONP 231747Z 2318/2418 19010G18KT 5SM -SHRA BR FEW008 SCT025 BKN050
     FM232300 21005KT P6SM VCSH FEW008 SCT015 BKN030
     FM240900 10003KT 4SM BR FEW002 SCT030=



000
FTUS46 KPQR 231747
TAFPDX
TAF
KPDX 231747Z 2318/2418 19009KT P6SM -SHRA SCT025 OVC050
     FM232100 30008KT 6SM SHRA BR BKN025 OVC050
     FM240000 21005KT P6SM VCSH SCT025 BKN050
     FM240600 18003KT 5SM BR FEW010 BKN030=



000
FTUS46 KPQR 231747
TAFHIO
TAF
KHIO 231747Z 2318/2418 18011KT 6SM SHRA SCT025 OVC050
     FM232000 30008KT P6SM -SHRA BKN025 OVC050
     FM240000 21005KT P6SM VCSH SCT025 BKN050
     FM240600 18003KT 5SM BR FEW010 BKN030
     FM240900 VRB03KT 1SM BR BKN004=



000
FTUS46 KPQR 231747
TAFEUG
TAF
KEUG 231747Z 2318/2418 17008KT P6SM SCT025 BKN050
     FM232100 19007KT P6SM -RA BKN030 OVC050
     FM240000 18006KT 6SM BR FEW030 SCT050
     FM240800 17004KT 1SM BR BKN004=



000
FTUS46 KPQR 231747
TAFTTD
TAF
KTTD 231747Z 2318/2418 22009KT 6SM SHRA SCT025 OVC050
     FM232000 28008KT P6SM -SHRA BKN025 OVC050
     FM240000 21005KT P6SM VCSH SCT025 BKN050
     FM240600 10003KT 5SM BR FEW010 BKN030=



000
FTUS46 KPQR 231747
TAFSLE
TAF
KSLE 231747Z 2318/2418 18012KT P6SM SCT025 BKN050
     FM232000 17010KT 6SM -RA BR BKN030 OVC050
     FM232300 19009KT P6SM SCT030 BKN050
     FM240900 17003KT 1SM BR BKN004=



000
FTUS46 KPQR 231449 AAA
TAFPDX
TAF AMD
KPDX 231449Z 2315/2412 19007KT P6SM FEW009 SCT030 BKN060
     FM231900 19009KT P6SM -SHRA SCT025 OVC050
     FM232100 30008KT 6SM SHRA BR BKN025 OVC050
     FM240000 21005KT P6SM VCSH SCT025 BKN050
     FM240600 18003KT 5SM BR FEW010 BKN030=



000
FTUS46 KPQR 231449 AAA
TAFPDX
TAF AMD
KPDX 231449Z 2315/2412 19007KT P6SM FEW009 SCT030 BKN060
     FM231900 19009KT P6SM -SHRA SCT025 OVC050
     FM232100 30008KT 6SM SHRA BR BKN025 OVC050
     FM240000 21005KT P6SM VCSH SCT025 BKN050
     FM240600 18003KT 5SM BR FEW010 BKN030=



000
FTUS46 KPQR 231120
TAFHIO
TAF
KHIO 231120Z 2312/2412 VRB04KT 6SM BR FEW009 SCT030 BKN060
      TEMPO 2312/2316 1SM BR SCT004 BKN009
     FM231800 19009KT 6SM SHRA SCT025 OVC050
     FM232000 30008KT P6SM -SHRA BKN025 OVC050
     FM240000 21005KT P6SM VCSH SCT025 BKN050
     FM240600 18003KT 5SM BR FEW010 BKN030
     FM240900 VRB03KT 1SM BR BKN004=



000
FTUS46 KPQR 231120
TAFAST
TAF
KAST 231120Z 2312/2412 21012KT P6SM -SHRA SCT025 BKN050
     FM231530 23016G27KT 3SM RA BR BKN025 OVC040
     FM231700 25010G18KT 6SM -SHRA BR SCT025 BKN050
     FM240100 27005KT P6SM VCSH FEW015 SCT030
     FM240900 13003KT 5SM BR FEW002 SCT030=



000
FTUS46 KPQR 231120
TAFPDX
TAF
KPDX 231120Z 2312/2412 19007KT P6SM FEW009 SCT030 BKN060
     FM231800 19009KT 6SM SHRA SCT025 OVC050
     FM232000 30008KT P6SM -SHRA BKN025 OVC050
     FM240000 21005KT P6SM VCSH SCT025 BKN050
     FM240600 18003KT 5SM BR FEW010 BKN030=



000
FTUS46 KPQR 231120
TAFSLE
TAF
KSLE 231120Z 2312/2412 18012KT P6SM SCT025 BKN050
     FM232000 17010KT 6SM -RA BR BKN030 OVC050
     FM232300 19009KT P6SM SCT030 BKN050
     FM240900 17003KT 1SM BR BKN004=



000
FTUS46 KPQR 231120
TAFAST
TAF
KAST 231120Z 2312/2412 21012KT P6SM -SHRA SCT025 BKN050
     FM231530 23016G27KT 3SM RA BR BKN025 OVC040
     FM231700 25010G18KT 6SM -SHRA BR SCT025 BKN050
     FM240100 27005KT P6SM VCSH FEW015 SCT030
     FM240900 13003KT 5SM BR FEW002 SCT030=



000
FTUS46 KPQR 231120
TAFTTD
TAF
KTTD 231120Z 2312/2412 21006KT P6SM FEW009 SCT030 BKN060
     FM231800 22009KT 6SM SHRA SCT025 OVC050
     FM232000 28008KT P6SM -SHRA BKN025 OVC050
     FM240000 21005KT P6SM VCSH SCT025 BKN050
     FM240600 10003KT 5SM BR FEW010 BKN030=



000
FTUS46 KPQR 231120
TAFONP
TAF
KONP 231120Z 2312/2412 17005KT P6SM -SHRA SCT025 BKN050
     FM231700 25010G18KT 6SM -SHRA BR FEW008 BKN025 BKN050
     FM232300 21005KT P6SM VCSH FEW008 SCT015 BKN030
     FM240900 10003KT 4SM BR FEW002 SCT030=



000
FTUS46 KPQR 231120
TAFHIO
TAF
KHIO 231120Z 2312/2412 VRB04KT 6SM BR FEW009 SCT030 BKN060
      TEMPO 2312/2316 1SM BR SCT004 BKN009
     FM231800 19009KT 6SM SHRA SCT025 OVC050
     FM232000 30008KT P6SM -SHRA BKN025 OVC050
     FM240000 21005KT P6SM VCSH SCT025 BKN050
     FM240600 18003KT 5SM BR FEW010 BKN030
     FM240900 VRB03KT 1SM BR BKN004=



000
FTUS46 KPQR 231120
TAFSLE
TAF
KSLE 231120Z 2312/2412 18012KT P6SM SCT025 BKN050
     FM232000 17010KT 6SM -RA BR BKN030 OVC050
     FM232300 19009KT P6SM SCT030 BKN050
     FM240900 17003KT 1SM BR BKN004=



000
FTUS46 KPQR 231120
TAFTTD
TAF
KTTD 231120Z 2312/2412 21006KT P6SM FEW009 SCT030 BKN060
     FM231800 22009KT 6SM SHRA SCT025 OVC050
     FM232000 28008KT P6SM -SHRA BKN025 OVC050
     FM240000 21005KT P6SM VCSH SCT025 BKN050
     FM240600 10003KT 5SM BR FEW010 BKN030=



000
FTUS46 KPQR 231120
TAFONP
TAF
KONP 231120Z 2312/2412 17005KT P6SM -SHRA SCT025 BKN050
     FM231700 25010G18KT 6SM -SHRA BR FEW008 BKN025 BKN050
     FM232300 21005KT P6SM VCSH FEW008 SCT015 BKN030
     FM240900 10003KT 4SM BR FEW002 SCT030=



000
FTUS46 KPQR 231120
TAFPDX
TAF
KPDX 231120Z 2312/2412 19007KT P6SM FEW009 SCT030 BKN060
     FM231800 19009KT 6SM SHRA SCT025 OVC050
     FM232000 30008KT P6SM -SHRA BKN025 OVC050
     FM240000 21005KT P6SM VCSH SCT025 BKN050
     FM240600 18003KT 5SM BR FEW010 BKN030=



000
FTUS46 KPQR 231120
TAFEUG
TAF
KEUG 231120Z 2312/2412 16005KT 6SM BR FEW002 BKN040
     FM231700 17008KT P6SM SCT025 BKN050
     FM232100 19007KT P6SM -RA BKN030 OVC050
     FM240000 18006KT 6SM BR FEW030 SCT050
     FM240800 17004KT 1SM BR BKN004=



000
FTUS46 KPQR 231008 AAA
TAFSLE
TAF AMD
KSLE 231008Z 2310/2406 17007KT P6SM FEW050
     FM231200 VRB03KT 5SM BR SCT004
     FM231700 18012KT P6SM -RA BKN050
     FM232300 19009KT P6SM BKN025 BKN050=



000
FTUS46 KPQR 231008 AAA
TAFSLE
TAF AMD
KSLE 231008Z 2310/2406 17007KT P6SM FEW050
     FM231200 VRB03KT 5SM BR SCT004
     FM231700 18012KT P6SM -RA BKN050
     FM232300 19009KT P6SM BKN025 BKN050=



000
FTUS46 KPQR 230856 AAA
TAFHIO
TAF AMD
KHIO 230856Z 2309/2406 00000KT 1SM BR VCSH BKN004
      TEMPO 2309/2313 6SM -SHRA SCT004 BKN040
     FM231700 18005KT 4SM -RA BR SCT007 OVC050
     FM240300 23002KT P6SM OVC100=



000
FTUS46 KPQR 230856 AAA
TAFHIO
TAF AMD
KHIO 230856Z 2309/2406 00000KT 1SM BR VCSH BKN004
      TEMPO 2309/2313 6SM -SHRA SCT004 BKN040
     FM231700 18005KT 4SM -RA BR SCT007 OVC050
     FM240300 23002KT P6SM OVC100=



000
FTUS46 KPQR 230854 AAA
TAFEUG
TAF AMD
KEUG 230854Z 2309/2406 17004KT P6SM FEW008 BKN040
     FM231200 17003KT 2SM BR FEW002 SCT004 BKN040
     FM231700 19008KT P6SM SCT025 BKN050
     FM240000 19006KT 6SM BR BKN250=



000
FTUS46 KPQR 230854 AAA
TAFEUG
TAF AMD
KEUG 230854Z 2309/2406 17004KT P6SM FEW008 BKN040
     FM231200 17003KT 2SM BR FEW002 SCT004 BKN040
     FM231700 19008KT P6SM SCT025 BKN050
     FM240000 19006KT 6SM BR BKN250=



000
FTUS46 KPQR 230852 AAA
TAFPDX
TAF AMD
KPDX 230852Z 2309/2406 VRB03KT P6SM VCSH SCT050 BKN080
     FM231200 VRB03KT 3SM BR SCT009 BKN060
     FM231700 18008KT 6SM -RA BKN025 OVC050
     FM240300 21005KT P6SM BKN100=



000
FTUS46 KPQR 230852 AAA
TAFPDX
TAF AMD
KPDX 230852Z 2309/2406 VRB03KT P6SM VCSH SCT050 BKN080
     FM231200 VRB03KT 3SM BR SCT009 BKN060
     FM231700 18008KT 6SM -RA BKN025 OVC050
     FM240300 21005KT P6SM BKN100=



000
FTUS46 KPQR 230549 CCA
TAFHIO
TAF COR
KHIO 230549Z 2306/2406 00000KT 2SM BR SCT007
     FM230800 00000KT 1SM BR VCSH BKN007
     FM231700 18005KT 4SM -RA BR SCT007 OVC050
     FM240300 23002KT P6SM OVC100=



000
FTUS46 KPQR 230549 CCA
TAFHIO
TAF COR
KHIO 230549Z 2306/2406 00000KT 2SM BR SCT007
     FM230800 00000KT 1SM BR VCSH BKN007
     FM231700 18005KT 4SM -RA BR SCT007 OVC050
     FM240300 23002KT P6SM OVC100=



000
FTUS46 KPQR 230533
TAFPDX
TAF
KPDX 230533Z 2306/2406 VRB03KT P6SM VCSH SCT050 BKN080
     FM231200 VRB03KT 3SM BR SCT009
     FM231800 18008KT 6SM -RA BKN025 OVC050
     FM240300 21005KT P6SM BKN100=



000
FTUS46 KPQR 230533
TAFHIO
TAF
KHIO 230533Z 2306/2406 00000KT P6SM VCSH BKN050 OVC080
     FM230900 00000KT 2SM BR VCSH BKN007
     FM231700 18005KT 4SM -RA BR SCT007 OVC050
     FM240300 23002KT P6SM OVC100=



000
FTUS46 KPQR 230533
TAFAST
TAF
KAST 230533Z 2306/2406 18007KT 6SM BR SCT025 BKN050
     FM230700 22008G18KT P6SM VCSH SCT025 OVC070
     FM231600 22012G22KT 6SM -RA OVC040
     FM240100 24005KT P6SM OVC100=



000
FTUS46 KPQR 230533
TAFEUG
TAF
KEUG 230533Z 2306/2406 19005KT P6SM FEW050
     FM230800 VRB03KT 2SM BR BKN004
     FM231700 19008KT P6SM SCT025 BKN050
     FM240000 19006KT 6SM HZ BKN250=



000
FTUS46 KPQR 230533
TAFONP
TAF
KONP 230533Z 2306/2406 00000KT 6SM BR VCSH SCT020 BKN050
     FM231800 21012G18KT 5SM -RA BKN015 OVC050
     FM240000 21008KT 4SM BR OVC100=



000
FTUS46 KPQR 230533
TAFSLE
TAF
KSLE 230533Z 2306/2406 17007KT P6SM FEW050
     FM231000 21003KT 2SM BR BKN004
     FM231200 VRB03KT P6SM SCT004
     FM231900 18012KT P6SM -RA BKN050
     FM232300 19009KT P6SM BKN025 BKN050=



000
FTUS46 KPQR 230533
TAFTTD
TAF
KTTD 230533Z 2306/2406 27005KT P6SM VCSH BKN050 OVC080
     FM231200 00000KT 2SM BR BKN008
     FM231500 23003KT P6SM SCT008 BKN050
     FM231800 32004KT 6SM -RA BKN050
     FM240400 00000KT P6SM OVC100=



000
FTUS46 KPQR 230533
TAFTTD
TAF
KTTD 230533Z 2306/2406 27005KT P6SM VCSH BKN050 OVC080
     FM231200 00000KT 2SM BR BKN008
     FM231500 23003KT P6SM SCT008 BKN050
     FM231800 32004KT 6SM -RA BKN050
     FM240400 00000KT P6SM OVC100=



000
FTUS46 KPQR 230533
TAFHIO
TAF
KHIO 230533Z 2306/2406 00000KT P6SM VCSH BKN050 OVC080
     FM230900 00000KT 2SM BR VCSH BKN007
     FM231700 18005KT 4SM -RA BR SCT007 OVC050
     FM240300 23002KT P6SM OVC100=



000
FTUS46 KPQR 230533
TAFONP
TAF
KONP 230533Z 2306/2406 00000KT 6SM BR VCSH SCT020 BKN050
     FM231800 21012G18KT 5SM -RA BKN015 OVC050
     FM240000 21008KT 4SM BR OVC100=



000
FTUS46 KPQR 230533
TAFAST
TAF
KAST 230533Z 2306/2406 18007KT 6SM BR SCT025 BKN050
     FM230700 22008G18KT P6SM VCSH SCT025 OVC070
     FM231600 22012G22KT 6SM -RA OVC040
     FM240100 24005KT P6SM OVC100=



000
FTUS46 KPQR 230533
TAFPDX
TAF
KPDX 230533Z 2306/2406 VRB03KT P6SM VCSH SCT050 BKN080
     FM231200 VRB03KT 3SM BR SCT009
     FM231800 18008KT 6SM -RA BKN025 OVC050
     FM240300 21005KT P6SM BKN100=



000
FTUS46 KPQR 230533
TAFEUG
TAF
KEUG 230533Z 2306/2406 19005KT P6SM FEW050
     FM230800 VRB03KT 2SM BR BKN004
     FM231700 19008KT P6SM SCT025 BKN050
     FM240000 19006KT 6SM HZ BKN250=



000
FTUS46 KPQR 230533
TAFSLE
TAF
KSLE 230533Z 2306/2406 17007KT P6SM FEW050
     FM231000 21003KT 2SM BR BKN004
     FM231200 VRB03KT P6SM SCT004
     FM231900 18012KT P6SM -RA BKN050
     FM232300 19009KT P6SM BKN025 BKN050=



000
FTUS46 KPQR 230300 AAA
TAFPDX
TAF AMD
KPDX 230300Z 2303/2324 27003KT P6SM -SHRA SCT015 SCT040 SCT060
     FM230600 18007KT P6SM VCSH SCT025 BKN050
     FM231800 18008KT 6SM -RA BKN025 OVC050=



000
FTUS46 KPQR 230300 AAA
TAFPDX
TAF AMD
KPDX 230300Z 2303/2324 27003KT P6SM -SHRA SCT015 SCT040 SCT060
     FM230600 18007KT P6SM VCSH SCT025 BKN050
     FM231800 18008KT 6SM -RA BKN025 OVC050=



000
FTUS46 KPQR 222322
TAFAST
TAF
KAST 222322Z 2300/2324 28009KT 6SM -SHRA BR SCT025 BKN050
     FM230700 22006KT P6SM VCSH SCT025 BKN050
     FM231500 23012G22KT 6SM -RA BKN025 OVC040=



000
FTUS46 KPQR 222322
TAFEUG
TAF
KEUG 222322Z 2300/2324 28007KT P6SM -SHRA SCT025 BKN060
     FM230900 VRB03KT 2SM BR VCSH SCT004 SCT025 BKN050
     FM231600 18006KT P6SM SCT025 BKN050=



000
FTUS46 KPQR 222322
TAFAST
TAF
KAST 222322Z 2300/2324 28009KT 6SM -SHRA BR SCT025 BKN050
     FM230700 22006KT P6SM VCSH SCT025 BKN050
     FM231500 23012G22KT 6SM -RA BKN025 OVC040=



000
FTUS46 KPQR 222322
TAFPDX
TAF
KPDX 222322Z 2300/2324 27005KT P6SM -SHRA SCT015 SCT040 BKN060
     FM230600 18007KT P6SM VCSH SCT025 BKN050
     FM231800 18008KT 6SM -RA BKN025 OVC050=



000
FTUS46 KPQR 222322
TAFONP
TAF
KONP 222322Z 2300/2324 28012KT P6SM -SHRA SCT025 BKN060
     FM230600 20010KT 6SM BR VCSH SCT020 BKN050
     FM231800 21012KT 5SM -DZ BKN015 OVC050=



000
FTUS46 KPQR 222322
TAFSLE
TAF
KSLE 222322Z 2300/2324 23003KT P6SM -SHRA SCT025 BKN060
     FM231000 21003KT 5SM BR VCSH SCT004 SCT030 BKN050
     FM231900 18010KT P6SM -RA BKN025 BKN050=



000
FTUS46 KPQR 222322
TAFHIO
TAF
KHIO 222322Z 2300/2324 28005KT P6SM -SHRA SCT025 BKN050
     FM230900 VRB03KT 2SM BR VCSH BKN007
     FM231700 18005KT 4SM -RA BR SCT007 BKN025 OVC050=



000
FTUS46 KPQR 222322
TAFONP
TAF
KONP 222322Z 2300/2324 28012KT P6SM -SHRA SCT025 BKN060
     FM230600 20010KT 6SM BR VCSH SCT020 BKN050
     FM231800 21012KT 5SM -DZ BKN015 OVC050=



000
FTUS46 KPQR 222322
TAFEUG
TAF
KEUG 222322Z 2300/2324 28007KT P6SM -SHRA SCT025 BKN060
     FM230900 VRB03KT 2SM BR VCSH SCT004 SCT025 BKN050
     FM231600 18006KT P6SM SCT025 BKN050=



000
FTUS46 KPQR 222322
TAFTTD
TAF
KTTD 222322Z 2300/2324 27005KT P6SM VCSH SCT025 BKN050
     FM231800 22004KT 6SM -RA BKN025 BKN050=



000
FTUS46 KPQR 222322
TAFPDX
TAF
KPDX 222322Z 2300/2324 27005KT P6SM -SHRA SCT015 SCT040 BKN060
     FM230600 18007KT P6SM VCSH SCT025 BKN050
     FM231800 18008KT 6SM -RA BKN025 OVC050=



000
FTUS46 KPQR 222322
TAFSLE
TAF
KSLE 222322Z 2300/2324 23003KT P6SM -SHRA SCT025 BKN060
     FM231000 21003KT 5SM BR VCSH SCT004 SCT030 BKN050
     FM231900 18010KT P6SM -RA BKN025 BKN050=



000
FTUS46 KPQR 222322
TAFHIO
TAF
KHIO 222322Z 2300/2324 28005KT P6SM -SHRA SCT025 BKN050
     FM230900 VRB03KT 2SM BR VCSH BKN007
     FM231700 18005KT 4SM -RA BR SCT007 BKN025 OVC050=



000
FTUS46 KPQR 222322
TAFTTD
TAF
KTTD 222322Z 2300/2324 27005KT P6SM VCSH SCT025 BKN050
     FM231800 22004KT 6SM -RA BKN025 BKN050=



000
FTUS46 KPQR 222109 AAA
TAFPDX
TAF AMD
KPDX 222109Z 2221/2318 26005KT P6SM -SHRA SCT015 SCT040 BKN060
     FM230900 18007KT P6SM -SHRA SCT025 BKN050
     FM231600 18008KT 6SM -RA BKN025 OVC050=



000
FTUS46 KPQR 222109 AAA
TAFPDX
TAF AMD
KPDX 222109Z 2221/2318 26005KT P6SM -SHRA SCT015 SCT040 BKN060
     FM230900 18007KT P6SM -SHRA SCT025 BKN050
     FM231600 18008KT 6SM -RA BKN025 OVC050=



000
FTUS46 KPQR 222103 AAB
TAFONP
TAF AMD
KONP 222103Z 2221/2318 28012KT 6SM -SHRA BR SCT025 BKN060
     FM230600 20010KT 6SM -SHRA BR SCT020 BKN050=



000
FTUS46 KPQR 222103 AAB
TAFONP
TAF AMD
KONP 222103Z 2221/2318 28012KT 6SM -SHRA BR SCT025 BKN060
     FM230600 20010KT 6SM -SHRA BR SCT020 BKN050=



000
FTUS46 KPQR 222011 AAA
TAFEUG
TAF AMD
KEUG 222011Z 2220/2318 21007KT P6SM -SHRA BKN025 BKN060
     FM222200 21007KT P6SM -SHRA SCT025 BKN050
     FM230900 VRB03KT 2SM -SHRA BR SCT004 SCT025 BKN050
     FM231500 18006KT P6SM -SHRA SCT025 BKN050=



000
FTUS46 KPQR 222011 AAA
TAFEUG
TAF AMD
KEUG 222011Z 2220/2318 21007KT P6SM -SHRA BKN025 BKN060
     FM222200 21007KT P6SM -SHRA SCT025 BKN050
     FM230900 VRB03KT 2SM -SHRA BR SCT004 SCT025 BKN050
     FM231500 18006KT P6SM -SHRA SCT025 BKN050=



000
FTUS46 KPQR 222007 AAA
TAFONP
TAF AMD
KONP 222007Z 2220/2318 23012KT 6SM -SHRA BR SCT015 BKN050
      TEMPO 2220/2221 23014G22KT 4SM TSRA BKN040CB
     FM230600 19010KT 6SM -SHRA BR SCT020 BKN050=



000
FTUS46 KPQR 222007 AAA
TAFONP
TAF AMD
KONP 222007Z 2220/2318 23012KT 6SM -SHRA BR SCT015 BKN050
      TEMPO 2220/2221 23014G22KT 4SM TSRA BKN040CB
     FM230600 19010KT 6SM -SHRA BR SCT020 BKN050=



000
FTUS46 KPQR 221743
TAFONP
TAF
KONP 221743Z 2218/2318 23012KT 6SM -SHRA BR SCT015 BKN050
      TEMPO 2218/2222 4SM -SHRA BKN015
     FM230600 19010KT 6SM -SHRA BR SCT020 BKN050=



000
FTUS46 KPQR 221743
TAFHIO
TAF
KHIO 221743Z 2218/2318 21005KT P6SM -SHRA BKN050
     FM231000 VRB03KT 2SM -SHRA BR SCT004 SCT025 BKN050
     FM231500 18005KT 4SM -RA BR BKN025 OVC050=



000
FTUS46 KPQR 221743
TAFSLE
TAF
KSLE 221743Z 2218/2318 21010KT P6SM -SHRA SCT040 BKN060
     FM230900 21003KT 3SM -SHRA BR SCT004 SCT030 BKN050
     FM231400 18008KT P6SM -SHRA SCT025 BKN050=



000
FTUS46 KPQR 221743
TAFPDX
TAF
KPDX 221743Z 2218/2318 18005KT P6SM -SHRA BKN050
     FM222100 24005KT P6SM -SHRA SCT050 BKN100
     FM230900 18007KT P6SM -SHRA SCT025 BKN050
     FM231600 18008KT 6SM -RA BKN025 OVC050=



000
FTUS46 KPQR 221743
TAFAST
TAF
KAST 221743Z 2218/2318 28009KT 6SM -SHRA BR SCT025 BKN040
     FM231500 23012G22KT 4SM -RA BKN025 OVC040=



000
FTUS46 KPQR 221743
TAFEUG
TAF
KEUG 221743Z 2218/2318 VRB03KT P6SM -SHRA SCT025 BKN060
     FM222100 21007KT P6SM -SHRA SCT025 BKN050
     FM230900 VRB03KT 2SM -SHRA BR SCT004 SCT025 BKN050
     FM231500 18006KT P6SM -SHRA SCT025 BKN050=



000
FTUS46 KPQR 221743
TAFTTD
TAF
KTTD 221743Z 2218/2318 21005KT P6SM -SHRA BKN050
     FM231700 22004KT 6SM -RA SCT025 BKN050=



000
FTUS46 KPQR 221743
TAFONP
TAF
KONP 221743Z 2218/2318 23012KT 6SM -SHRA BR SCT015 BKN050
      TEMPO 2218/2222 4SM -SHRA BKN015
     FM230600 19010KT 6SM -SHRA BR SCT020 BKN050=



000
FTUS46 KPQR 221743
TAFSLE
TAF
KSLE 221743Z 2218/2318 21010KT P6SM -SHRA SCT040 BKN060
     FM230900 21003KT 3SM -SHRA BR SCT004 SCT030 BKN050
     FM231400 18008KT P6SM -SHRA SCT025 BKN050=



000
FTUS46 KPQR 221743
TAFTTD
TAF
KTTD 221743Z 2218/2318 21005KT P6SM -SHRA BKN050
     FM231700 22004KT 6SM -RA SCT025 BKN050=



000
FTUS46 KPQR 221743
TAFEUG
TAF
KEUG 221743Z 2218/2318 VRB03KT P6SM -SHRA SCT025 BKN060
     FM222100 21007KT P6SM -SHRA SCT025 BKN050
     FM230900 VRB03KT 2SM -SHRA BR SCT004 SCT025 BKN050
     FM231500 18006KT P6SM -SHRA SCT025 BKN050=



000
FTUS46 KPQR 221743
TAFHIO
TAF
KHIO 221743Z 2218/2318 21005KT P6SM -SHRA BKN050
     FM231000 VRB03KT 2SM -SHRA BR SCT004 SCT025 BKN050
     FM231500 18005KT 4SM -RA BR BKN025 OVC050=



000
FTUS46 KPQR 221743
TAFPDX
TAF
KPDX 221743Z 2218/2318 18005KT P6SM -SHRA BKN050
     FM222100 24005KT P6SM -SHRA SCT050 BKN100
     FM230900 18007KT P6SM -SHRA SCT025 BKN050
     FM231600 18008KT 6SM -RA BKN025 OVC050=



000
FTUS46 KPQR 221743
TAFAST
TAF
KAST 221743Z 2218/2318 28009KT 6SM -SHRA BR SCT025 BKN040
     FM231500 23012G22KT 4SM -RA BKN025 OVC040=



000
FTUS46 KPQR 221633 AAC
TAFHIO
TAF AMD
KHIO 221633Z 2217/2312 21005KT P6SM -SHRA BKN050=



000
FTUS46 KPQR 221633 AAC
TAFHIO
TAF AMD
KHIO 221633Z 2217/2312 21005KT P6SM -SHRA BKN050=



000
FTUS46 KPQR 221608 AAC
TAFPDX
TAF AMD
KPDX 221608Z 2216/2312 21005KT P6SM -SHRA SCT040 BKN060
      TEMPO 2216/2217 VRB03KT 4SM SHRA FEW007 SCT060=



000
FTUS46 KPQR 221608 AAC
TAFPDX
TAF AMD
KPDX 221608Z 2216/2312 21005KT P6SM -SHRA SCT040 BKN060
      TEMPO 2216/2217 VRB03KT 4SM SHRA FEW007 SCT060=



000
FTUS46 KPQR 221534 AAC
TAFONP
TAF AMD
KONP 221534Z 2216/2312 23012G18KT 5SM BR VCTS SCT015CB BKN050
     FM221600 23012KT 6SM -SHRA BR FEW007 SCT015 BKN040=



000
FTUS46 KPQR 221534 AAC
TAFONP
TAF AMD
KONP 221534Z 2216/2312 23012G18KT 5SM BR VCTS SCT015CB BKN050
     FM221600 23012KT 6SM -SHRA BR FEW007 SCT015 BKN040=



000
FTUS46 KPQR 221531 AAB
TAFHIO
TAF AMD
KHIO 221531Z 2216/2312 VRB03KT 1/2SM FG BKN005 BKN045
     FM221600 VRB03KT 2SM BR SCT005 BKN050
     FM221700 21005KT P6SM -SHRA BKN050=



000
FTUS46 KPQR 221531 AAB
TAFHIO
TAF AMD
KHIO 221531Z 2216/2312 VRB03KT 1/2SM FG BKN005 BKN045
     FM221600 VRB03KT 2SM BR SCT005 BKN050
     FM221700 21005KT P6SM -SHRA BKN050=



000
FTUS46 KPQR 221453 AAB
TAFPDX
TAF AMD
KPDX 221453Z 2215/2312 21005KT P6SM -SHRA SCT040 BKN060
      TEMPO 2215/2217 VRB03KT 4SM BR FEW007 SCT060=



000
FTUS46 KPQR 221453 AAB
TAFPDX
TAF AMD
KPDX 221453Z 2215/2312 21005KT P6SM -SHRA SCT040 BKN060
      TEMPO 2215/2217 VRB03KT 4SM BR FEW007 SCT060=



000
FTUS46 KPQR 221414 AAB
TAFONP
TAF AMD
KONP 221414Z 2214/2312 23009KT 6SM -SHRA BR FEW007 SCT015 BKN040
     FM221445 23012G18KT 5SM BR VCTS FEW007 SCT015CB BKN040
     FM221530 23012KT 6SM -SHRA BR FEW007 SCT015 BKN040=



000
FTUS46 KPQR 221414 AAB
TAFONP
TAF AMD
KONP 221414Z 2214/2312 23009KT 6SM -SHRA BR FEW007 SCT015 BKN040
     FM221445 23012G18KT 5SM BR VCTS FEW007 SCT015CB BKN040
     FM221530 23012KT 6SM -SHRA BR FEW007 SCT015 BKN040=



000
FTUS46 KPQR 221349 AAA
TAFONP
TAF AMD
KONP 221349Z 2214/2312 23009KT 6SM -SHRA BR FEW007 SCT015 BKN040
     FM221500 23012G18KT 5SM BR VCTS FEW007 SCT015CB BKN040
     FM221630 23012KT 6SM -SHRA BR FEW007 SCT015 BKN040=



000
FTUS46 KPQR 221349 AAA
TAFONP
TAF AMD
KONP 221349Z 2214/2312 23009KT 6SM -SHRA BR FEW007 SCT015 BKN040
     FM221500 23012G18KT 5SM BR VCTS FEW007 SCT015CB BKN040
     FM221630 23012KT 6SM -SHRA BR FEW007 SCT015 BKN040=



000
FTUS46 KPQR 221345 AAA
TAFAST
TAF AMD
KAST 221345Z 2214/2312 26008KT 5SM BR VCTS BKN025CB OVC040
     FM221630 26009KT 6SM -SHRA BR FEW025 BKN040=



000
FTUS46 KPQR 221345 AAA
TAFAST
TAF AMD
KAST 221345Z 2214/2312 26008KT 5SM BR VCTS BKN025CB OVC040
     FM221630 26009KT 6SM -SHRA BR FEW025 BKN040=



000
FTUS46 KPQR 221252 AAA
TAFPDX
TAF AMD
KPDX 221252Z 2213/2312 21005KT P6SM -SHRA SCT040 BKN060
      TEMPO 2213/2215 VRB03KT 2SM BR FEW002 SCT060=



000
FTUS46 KPQR 221252 AAA
TAFPDX
TAF AMD
KPDX 221252Z 2213/2312 21005KT P6SM -SHRA SCT040 BKN060
      TEMPO 2213/2215 VRB03KT 2SM BR FEW002 SCT060=



000
FTUS46 KPQR 221251 AAA
TAFHIO
TAF AMD
KHIO 221251Z 2213/2312 21005KT P6SM -SHRA SCT040 BKN060
      TEMPO 2213/2215 1/2SM FG VV002=



000
FTUS46 KPQR 221251 AAA
TAFHIO
TAF AMD
KHIO 221251Z 2213/2312 21005KT P6SM -SHRA SCT040 BKN060
      TEMPO 2213/2215 1/2SM FG VV002=



000
FTUS46 KPQR 221230 AAA
TAFTTD
TAF AMD
KTTD 221230Z 2213/2312 21005KT P6SM -SHRA SCT040 BKN060
      TEMPO 2213/2215 00000KT 1SM BR BKN002=



000
FTUS46 KPQR 221230 AAA
TAFTTD
TAF AMD
KTTD 221230Z 2213/2312 21005KT P6SM -SHRA SCT040 BKN060
      TEMPO 2213/2215 00000KT 1SM BR BKN002=



000
FTUS46 KPQR 221153 CCA
TAFONP
TAF COR
KONP 221153Z 2212/2312 23011G18KT 6SM -SHRA BR FEW007 SCT015 BKN040
      TEMPO 2212/2216 5SM BR SCT007 BKN015 OVC030=



000
FTUS46 KPQR 221152 CCA
TAFHIO
TAF COR
KHIO 221152Z 2212/2312 21005KT P6SM -SHRA SCT040 BKN060
      TEMPO 2212/2215 2SM BR FEW002 SCT040 BKN060=



000
FTUS46 KPQR 221152 CCA
TAFHIO
TAF COR
KHIO 221152Z 2212/2312 21005KT P6SM -SHRA SCT040 BKN060
      TEMPO 2212/2215 2SM BR FEW002 SCT040 BKN060=



000
FTUS46 KPQR 221120
TAFHIO
TAF
KHIO 221120Z 2212/2312 21005KT P6SM -SHRA SCT040 BKN060=



000
FTUS46 KPQR 221120
TAFTTD
TAF
KTTD 221120Z 2212/2312 21005KT P6SM -SHRA SCT040 BKN060=



000
FTUS46 KPQR 221120
TAFTTD
TAF
KTTD 221120Z 2212/2312 21005KT P6SM -SHRA SCT040 BKN060=



000
FTUS46 KPQR 221120
TAFONP
TAF
KONP 221120Z 2212/2312 23012KT 6SM -SHRA BR FEW007 SCT015 BKN040
      TEMPO 2212/2216 5SM BR SCT007 BKN015 OVC030=



000
FTUS46 KPQR 221120
TAFAST
TAF
KAST 221120Z 2212/2312 26007KT 6SM -SHRA BR FEW025 BKN040
     FM221530 26008KT 5SM BR VCTS BKN025CB OVC040
     FM221645 26009KT 6SM -SHRA BR FEW025 BKN040=



000
FTUS46 KPQR 221120
TAFEUG
TAF
KEUG 221120Z 2212/2312 21007KT P6SM -SHRA SCT030 BKN060=



000
FTUS46 KPQR 221120
TAFPDX
TAF
KPDX 221120Z 2212/2312 21005KT P6SM -SHRA SCT040 BKN060=



000
FTUS46 KPQR 221120
TAFAST
TAF
KAST 221120Z 2212/2312 26007KT 6SM -SHRA BR FEW025 BKN040
     FM221530 26008KT 5SM BR VCTS BKN025CB OVC040
     FM221645 26009KT 6SM -SHRA BR FEW025 BKN040=



000
FTUS46 KPQR 221120
TAFSLE
TAF
KSLE 221120Z 2212/2312 20004KT P6SM -SHRA SCT030 BKN060
      TEMPO 2212/2214 5SM -RA BR BKN030 OVC060=



000
FTUS46 KPQR 221120
TAFONP
TAF
KONP 221120Z 2212/2312 23012KT 6SM -SHRA BR FEW007 SCT015 BKN040
      TEMPO 2212/2216 5SM BR SCT007 BKN015 OVC030=



000
FTUS46 KPQR 221120
TAFEUG
TAF
KEUG 221120Z 2212/2312 21007KT P6SM -SHRA SCT030 BKN060=



000
FTUS46 KPQR 221120
TAFSLE
TAF
KSLE 221120Z 2212/2312 20004KT P6SM -SHRA SCT030 BKN060
      TEMPO 2212/2214 5SM -RA BR BKN030 OVC060=



000
FTUS46 KPQR 221120
TAFPDX
TAF
KPDX 221120Z 2212/2312 21005KT P6SM -SHRA SCT040 BKN060=



000
FTUS46 KPQR 221120
TAFHIO
TAF
KHIO 221120Z 2212/2312 21005KT P6SM -SHRA SCT040 BKN060=



000
FTUS46 KPQR 220855 AAA
TAFEUG
TAF AMD
KEUG 220855Z 2209/2306 21004KT P6SM -SHRA SCT030 BKN060
      TEMPO 2209/2213 5SM -RA BR BKN030 OVC060
     FM221300 20009KT P6SM -SHRA SCT030 BKN060=



000
FTUS46 KPQR 220855 AAA
TAFEUG
TAF AMD
KEUG 220855Z 2209/2306 21004KT P6SM -SHRA SCT030 BKN060
      TEMPO 2209/2213 5SM -RA BR BKN030 OVC060
     FM221300 20009KT P6SM -SHRA SCT030 BKN060=



000
FTUS46 KPQR 220854 AAA
TAFSLE
TAF AMD
KSLE 220854Z 2209/2306 VRB04KT P6SM -SHRA SCT030 BKN060
      TEMPO 2209/2213 5SM -RA BR BKN030 OVC060
     FM221300 VRB04KT P6SM -SHRA SCT030 BKN060=



000
FTUS46 KPQR 220854 AAA
TAFSLE
TAF AMD
KSLE 220854Z 2209/2306 VRB04KT P6SM -SHRA SCT030 BKN060
      TEMPO 2209/2213 5SM -RA BR BKN030 OVC060
     FM221300 VRB04KT P6SM -SHRA SCT030 BKN060=



000
FTUS46 KPQR 220852 AAA
TAFONP
TAF AMD
KONP 220852Z 2209/2306 23012KT 5SM -RA BR SCT007 BKN015 OVC040
      TEMPO 2209/2212 BKN007 OVC015
     FM221300 27008G15KT 4SM -RA BKN030 OVC050
     FM222000 25014G21KT 3SM -RA BR OVC009
     FM230000 26012G20KT 4SM -RA BR BKN015
     FM230300 24010KT 4SM BR SCT250=



000
FTUS46 KPQR 220852 AAA
TAFONP
TAF AMD
KONP 220852Z 2209/2306 23012KT 5SM -RA BR SCT007 BKN015 OVC040
      TEMPO 2209/2212 BKN007 OVC015
     FM221300 27008G15KT 4SM -RA BKN030 OVC050
     FM222000 25014G21KT 3SM -RA BR OVC009
     FM230000 26012G20KT 4SM -RA BR BKN015
     FM230300 24010KT 4SM BR SCT250=



000
FTUS46 KPQR 220851 AAA
TAFPDX
TAF AMD
KPDX 220851Z 2209/2306 24005KT P6SM -SHRA SCT040 BKN080
     FM230200 24005KT P6SM SCT250=



000
FTUS46 KPQR 220851 AAA
TAFPDX
TAF AMD
KPDX 220851Z 2209/2306 24005KT P6SM -SHRA SCT040 BKN080
     FM230200 24005KT P6SM SCT250=



000
FTUS46 KPQR 220532
TAFAST
TAF
KAST 220532Z 2206/2306 26006KT P6SM SCT020 BKN060 OVC110
     FM221100 25012KT 4SM -RA BR SCT025 OVC050
     FM230000 25007KT P6SM BKN250=



000
FTUS46 KPQR 220532
TAFHIO
TAF
KHIO 220532Z 2206/2306 29007KT 6SM -RA BKN035 BKN050 OVC070
     FM221400 24005KT 4SM BR VCSH SCT015 OVC050
     FM230200 24005KT P6SM SCT250=



000
FTUS46 KPQR 220532
TAFSLE
TAF
KSLE 220532Z 2206/2306 28005KT P6SM SCT040 BKN070 OVC110
     FM221200 29003KT P6SM VCSH OVC050
     FM221400 21008KT P6SM VCSH OVC050=



000
FTUS46 KPQR 220532
TAFONP
TAF
KONP 220532Z 2206/2306 27009G15KT 6SM -RA BR SCT030 BKN060 OVC110
     FM221300 27008G15KT 4SM -RA BKN030 OVC050
     FM222000 25014G21KT 3SM -RA BR OVC009
     FM230000 26012G20KT 4SM -RA BR BKN015
     FM230300 24010KT 4SM BR SCT250=



000
FTUS46 KPQR 220532
TAFPDX
TAF
KPDX 220532Z 2206/2306 29005KT P6SM BKN035 OVC070
     FM221400 23006KT P6SM VCSH OVC050
     FM230200 24005KT P6SM SCT250=



000
FTUS46 KPQR 220532
TAFEUG
TAF
KEUG 220532Z 2206/2306 26008KT 5SM RA BR BKN020 BKN030
     FM220800 27006KT P6SM OVC050
     FM221500 22010KT P6SM VCSH OVC050=



000
FTUS46 KPQR 220532
TAFONP
TAF
KONP 220532Z 2206/2306 27009G15KT 6SM -RA BR SCT030 BKN060 OVC110
     FM221300 27008G15KT 4SM -RA BKN030 OVC050
     FM222000 25014G21KT 3SM -RA BR OVC009
     FM230000 26012G20KT 4SM -RA BR BKN015
     FM230300 24010KT 4SM BR SCT250=



000
FTUS46 KPQR 220532
TAFTTD
TAF
KTTD 220532Z 2206/2306 28005KT P6SM BKN035 OVC070
     FM221700 25005KT P6SM VCSH OVC050
     FM230300 VRB03KT 6SM BR SCT250=



000
FTUS46 KPQR 220532
TAFHIO
TAF
KHIO 220532Z 2206/2306 29007KT 6SM -RA BKN035 BKN050 OVC070
     FM221400 24005KT 4SM BR VCSH SCT015 OVC050
     FM230200 24005KT P6SM SCT250=



000
FTUS46 KPQR 220532
TAFSLE
TAF
KSLE 220532Z 2206/2306 28005KT P6SM SCT040 BKN070 OVC110
     FM221200 29003KT P6SM VCSH OVC050
     FM221400 21008KT P6SM VCSH OVC050=



000
FTUS46 KPQR 220532
TAFEUG
TAF
KEUG 220532Z 2206/2306 26008KT 5SM RA BR BKN020 BKN030
     FM220800 27006KT P6SM OVC050
     FM221500 22010KT P6SM VCSH OVC050=



000
FTUS46 KPQR 220532
TAFTTD
TAF
KTTD 220532Z 2206/2306 28005KT P6SM BKN035 OVC070
     FM221700 25005KT P6SM VCSH OVC050
     FM230300 VRB03KT 6SM BR SCT250=



000
FTUS46 KPQR 220532
TAFPDX
TAF
KPDX 220532Z 2206/2306 29005KT P6SM BKN035 OVC070
     FM221400 23006KT P6SM VCSH OVC050
     FM230200 24005KT P6SM SCT250=



000
FTUS46 KPQR 220532
TAFAST
TAF
KAST 220532Z 2206/2306 26006KT P6SM SCT020 BKN060 OVC110
     FM221100 25012KT 4SM -RA BR SCT025 OVC050
     FM230000 25007KT P6SM BKN250=



000
FTUS46 KPQR 220258 AAD
TAFPDX
TAF AMD
KPDX 220258Z 2203/2224 20020G30KT 5SM -RA BR BKN015 BKN025 OVC040
     FM220600 21011KT 4SM -RA BR BKN015 OVC025
     FM221400 23008KT P6SM VCSH OVC050=



000
FTUS46 KPQR 220258 AAD
TAFPDX
TAF AMD
KPDX 220258Z 2203/2224 20020G30KT 5SM -RA BR BKN015 BKN025 OVC040
     FM220600 21011KT 4SM -RA BR BKN015 OVC025
     FM221400 23008KT P6SM VCSH OVC050=



000
FTUS46 KPQR 220223 AAB
TAFHIO
TAF AMD
KHIO 220223Z 2202/2224 18015G28KT 5SM -RA BR BKN009 OVC015
     FM220800 23007KT 2SM -RA BR BKN007 OVC015
     FM221400 24005KT 4SM BR SCT015 OVC050=



000
FTUS46 KPQR 220223 AAB
TAFHIO
TAF AMD
KHIO 220223Z 2202/2224 18015G28KT 5SM -RA BR BKN009 OVC015
     FM220800 23007KT 2SM -RA BR BKN007 OVC015
     FM221400 24005KT 4SM BR SCT015 OVC050=



000
FTUS46 KPQR 220222 AAC
TAFPDX
TAF AMD
KPDX 220222Z 2202/2224 18015G30KT P6SM -RA BKN015 BKN025 OVC040
     FM220600 21011KT 4SM -RA BR BKN015 OVC025
     FM221400 23008KT P6SM VCSH OVC050=



000
FTUS46 KPQR 220221 AAB
TAFAST
TAF AMD
KAST 220221Z 2202/2224 27011KT 3SM -RA BR SCT006 BKN012 OVC020
     FM221100 25012KT 4SM BR SCT025 OVC050=



000
FTUS46 KPQR 220221 AAB
TAFAST
TAF AMD
KAST 220221Z 2202/2224 27011KT 3SM -RA BR SCT006 BKN012 OVC020
     FM221100 25012KT 4SM BR SCT025 OVC050=



000
FTUS46 KPQR 220137 AAB
TAFTTD
TAF AMD
KTTD 220137Z 2202/2224 18011G22KT P6SM -RA BKN012 OVC020
     FM220600 18012KT 4SM -RA BR BKN015 OVC035
     FM220800 21007KT 4SM -RA BR BKN018 OVC035
     FM221700 23007KT P6SM -RA OVC050=



000
FTUS46 KPQR 220130 AAB
TAFPDX
TAF AMD
KPDX 220130Z 2202/2224 18012G22KT P6SM -RA SCT015 BKN025 OVC040
     FM220600 21011KT 4SM -RA BR BKN015 OVC025
     FM221400 23008KT P6SM VCSH OVC050=



000
FTUS46 KPQR 220130 AAB
TAFPDX
TAF AMD
KPDX 220130Z 2202/2224 18012G22KT P6SM -RA SCT015 BKN025 OVC040
     FM220600 21011KT 4SM -RA BR BKN015 OVC025
     FM221400 23008KT P6SM VCSH OVC050=



000
FTUS46 KPQR 220123 AAA
TAFONP
TAF AMD
KONP 220123Z 2201/2224 19035G50KT 2SM RA BR BKN005 OVC015
     FM220200 23024G33KT 3SM -RA BR BKN007
     FM220300 27011G22KT 3SM -RA BR BKN007
     FM221300 27010G20KT 4SM -RA OVC050=



000
FTUS46 KPQR 220123 AAA
TAFONP
TAF AMD
KONP 220123Z 2201/2224 19035G50KT 2SM RA BR BKN005 OVC015
     FM220200 23024G33KT 3SM -RA BR BKN007
     FM220300 27011G22KT 3SM -RA BR BKN007
     FM221300 27010G20KT 4SM -RA OVC050=



000
FTUS46 KPQR 220120 AAA
TAFAST
TAF AMD
KAST 220120Z 2201/2224 27011G22KT 3SM -RA BR SCT006 BKN012 OVC020
     FM221100 25012KT 4SM BR SCT025 OVC050=



000
FTUS46 KPQR 220120 AAA
TAFAST
TAF AMD
KAST 220120Z 2201/2224 27011G22KT 3SM -RA BR SCT006 BKN012 OVC020
     FM221100 25012KT 4SM BR SCT025 OVC050=



000
FTUS46 KPQR 220026 AAA
TAFTTD
TAF AMD
KTTD 220026Z 2200/2224 10018G30KT 4SM RA BR BKN020 OVC035
     FM220600 18012KT 4SM -RA BR BKN015 OVC035
     FM220800 21007KT 4SM -RA BR BKN018 OVC035
     FM221700 23007KT P6SM -RA OVC050=



000
FTUS46 KPQR 220026 AAA
TAFTTD
TAF AMD
KTTD 220026Z 2200/2224 10018G30KT 4SM RA BR BKN020 OVC035
     FM220600 18012KT 4SM -RA BR BKN015 OVC035
     FM220800 21007KT 4SM -RA BR BKN018 OVC035
     FM221700 23007KT P6SM -RA OVC050=



000
FTUS46 KPQR 220025 AAA
TAFHIO
TAF AMD
KHIO 220025Z 2200/2224 18012G23KT 2SM -RA BR BKN009 OVC015
     FM220200 20012KT 4SM -RA BR SCT009 BKN015 OVC025
     FM220800 23007KT 2SM -RA BR BKN007 OVC015
     FM221400 24005KT 4SM BR SCT015 OVC050=



000
FTUS46 KPQR 220025 AAA
TAFHIO
TAF AMD
KHIO 220025Z 2200/2224 18012G23KT 2SM -RA BR BKN009 OVC015
     FM220200 20012KT 4SM -RA BR SCT009 BKN015 OVC025
     FM220800 23007KT 2SM -RA BR BKN007 OVC015
     FM221400 24005KT 4SM BR SCT015 OVC050=



000
FTUS46 KPQR 220023 AAA
TAFPDX
TAF AMD
KPDX 220023Z 2200/2224 12015KT 4SM RA BR BKN012 OVC020
     FM220200 18012G22KT 4SM -RA BR SCT015 BKN025 OVC040
     FM220600 21011KT 4SM -RA BR BKN015 OVC025
     FM221400 23008KT P6SM VCSH OVC050=



000
FTUS46 KPQR 220023 AAA
TAFPDX
TAF AMD
KPDX 220023Z 2200/2224 12015KT 4SM RA BR BKN012 OVC020
     FM220200 18012G22KT 4SM -RA BR SCT015 BKN025 OVC040
     FM220600 21011KT 4SM -RA BR BKN015 OVC025
     FM221400 23008KT P6SM VCSH OVC050=



000
FTUS46 KPQR 212338
TAFONP
TAF
KONP 212338Z 2200/2224 19035G50KT 1 1/2SM RA BR BKN007 OVC015
     FM220100 23020G30KT 3SM -RA SCT007 OVC015
     FM221300 27010G20KT 4SM -RA OVC050=



000
FTUS46 KPQR 212338
TAFSLE
TAF
KSLE 212338Z 2200/2224 19025G35KT 4SM RA BKN015 BKN020 OVC050
     FM220600 24014G25KT 2SM -RA BR BKN012 OVC025
     FM221100 26012KT 4SM BR SCT025 BKN070=



000
FTUS46 KPQR 212338
TAFTTD
TAF
KTTD 212338Z 2200/2224 10018G30KT 2SM RA BR BKN025 OVC035
     FM220600 18012KT 4SM -RA BR BKN015 OVC035
     FM220800 21007KT 4SM -RA BR BKN018 OVC035
     FM221700 23007KT P6SM -RA OVC050=



000
FTUS46 KPQR 212338
TAFHIO
TAF
KHIO 212338Z 2200/2224 14010KT 2SM -RA BR BKN009 OVC015
     FM220200 20012KT 4SM -RA BR SCT009 BKN015 OVC025
     FM220800 23007KT 2SM -RA BR BKN007 OVC015
     FM221400 24005KT 4SM BR SCT015 OVC050=



000
FTUS46 KPQR 212338
TAFPDX
TAF
KPDX 212338Z 2200/2224 12015KT 2SM RA BR BKN015 OVC025
     FM220200 18012G22KT 4SM -RA BR SCT015 BKN025 OVC040
     FM220600 21011KT 4SM -RA BR BKN015 OVC025
     FM221400 23008KT P6SM VCSH OVC050=



000
FTUS46 KPQR 212338
TAFEUG
TAF
KEUG 212338Z 2200/2224 19017G28KT 4SM -RA BR SCT015 BKN025 OVC040
     FM220600 20015KT 2SM -RA BR BKN012 OVC025
     FM221100 24007KT 4SM -RA BR SCT025 OVC050=



000
FTUS46 KPQR 212338
TAFAST
TAF
KAST 212338Z 2200/2224 19025G45KT 1 1/2SM RA BR SCT013 BKN020
      OVC030
     FM220000 23015G25KT 2SM -RA BR SCT015 BKN020 OVC030
     FM221100 25012KT 4SM BR SCT025 OVC050=



000
FTUS46 KPQR 212338
TAFHIO
TAF
KHIO 212338Z 2200/2224 14010KT 2SM -RA BR BKN009 OVC015
     FM220200 20012KT 4SM -RA BR SCT009 BKN015 OVC025
     FM220800 23007KT 2SM -RA BR BKN007 OVC015
     FM221400 24005KT 4SM BR SCT015 OVC050=



000
FTUS46 KPQR 212338
TAFONP
TAF
KONP 212338Z 2200/2224 19035G50KT 1 1/2SM RA BR BKN007 OVC015
     FM220100 23020G30KT 3SM -RA SCT007 OVC015
     FM221300 27010G20KT 4SM -RA OVC050=



000
FTUS46 KPQR 212338
TAFEUG
TAF
KEUG 212338Z 2200/2224 19017G28KT 4SM -RA BR SCT015 BKN025 OVC040
     FM220600 20015KT 2SM -RA BR BKN012 OVC025
     FM221100 24007KT 4SM -RA BR SCT025 OVC050=



000
FTUS46 KPQR 212338
TAFTTD
TAF
KTTD 212338Z 2200/2224 10018G30KT 2SM RA BR BKN025 OVC035
     FM220600 18012KT 4SM -RA BR BKN015 OVC035
     FM220800 21007KT 4SM -RA BR BKN018 OVC035
     FM221700 23007KT P6SM -RA OVC050=



000
FTUS46 KPQR 212338
TAFAST
TAF
KAST 212338Z 2200/2224 19025G45KT 1 1/2SM RA BR SCT013 BKN020
      OVC030
     FM220000 23015G25KT 2SM -RA BR SCT015 BKN020 OVC030
     FM221100 25012KT 4SM BR SCT025 OVC050=



000
FTUS46 KPQR 212338
TAFSLE
TAF
KSLE 212338Z 2200/2224 19025G35KT 4SM RA BKN015 BKN020 OVC050
     FM220600 24014G25KT 2SM -RA BR BKN012 OVC025
     FM221100 26012KT 4SM BR SCT025 BKN070=



000
FTUS46 KPQR 212338
TAFPDX
TAF
KPDX 212338Z 2200/2224 12015KT 2SM RA BR BKN015 OVC025
     FM220200 18012G22KT 4SM -RA BR SCT015 BKN025 OVC040
     FM220600 21011KT 4SM -RA BR BKN015 OVC025
     FM221400 23008KT P6SM VCSH OVC050=



000
FTUS46 KPQR 212243 AAA
TAFAST
TAF AMD
KAST 212243Z 2123/2218 19025G45KT 2SM RA BR SCT015 BKN020 OVC030
     FM220300 23015G25KT 6SM -RA BR SCT015 BKN025 OVC040
     FM220600 25014KT P6SM -RA SCT025 OVC040=



000
FTUS46 KPQR 212209 AAD
TAFTTD
TAF AMD
KTTD 212209Z 2122/2218 10018G25KT 2SM RA BR SCT020 OVC030
     FM220400 11010KT 4SM -RA BR BKN020 OVC035
     FM220800 21007KT 4SM -RA BR BKN018 OVC035=



000
FTUS46 KPQR 212209 AAD
TAFTTD
TAF AMD
KTTD 212209Z 2122/2218 10018G25KT 2SM RA BR SCT020 OVC030
     FM220400 11010KT 4SM -RA BR BKN020 OVC035
     FM220800 21007KT 4SM -RA BR BKN018 OVC035=



000
FTUS46 KPQR 212206 AAD
TAFPDX
TAF AMD
KPDX 212206Z 2122/2218 12015KT 2SM RA BR BKN025 OVC030
     FM220200 18012G22KT 4SM -RA BR SCT015 BKN025 OVC040
     FM220600 21011KT 4SM -RA BR BKN015 OVC025=



000
FTUS46 KPQR 212206 AAD
TAFPDX
TAF AMD
KPDX 212206Z 2122/2218 12015KT 2SM RA BR BKN025 OVC030
     FM220200 18012G22KT 4SM -RA BR SCT015 BKN025 OVC040
     FM220600 21011KT 4SM -RA BR BKN015 OVC025=



000
FTUS46 KPQR 212140 AAB
TAFHIO
TAF AMD
KHIO 212140Z 2122/2218 14010KT 3SM -RA BR SCT009 BKN015 OVC030
      TEMPO 2122/2124 2SM -RA BR BKN009
     FM220200 18011KT 1SM -RA BR SCT007 BKN010 OVC025
     FM220500 21010KT 4SM -RA BR BKN007 OVC015=



000
FTUS46 KPQR 212140 AAB
TAFHIO
TAF AMD
KHIO 212140Z 2122/2218 14010KT 3SM -RA BR SCT009 BKN015 OVC030
      TEMPO 2122/2124 2SM -RA BR BKN009
     FM220200 18011KT 1SM -RA BR SCT007 BKN010 OVC025
     FM220500 21010KT 4SM -RA BR BKN007 OVC015=



000
FTUS46 KPQR 212140 AAB
TAFHIO
TAF AMD
KHIO 212140Z 2122/2218 14010KT 3SM -RA BR SCT009 BKN015 OVC030
      TEMPO 2122/2124 2SM -RA BR BKN009
     FM220200 18011KT 1SM -RA BR SCT007 BKN010 OVC025
     FM220500 21010KT 4SM -RA BR BKN007 OVC015=



000
FTUS46 KPQR 212140 AAB
TAFHIO
TAF AMD
KHIO 212140Z 2122/2218 14010KT 3SM -RA BR SCT009 BKN015 OVC030
      TEMPO 2122/2124 2SM -RA BR BKN009
     FM220200 18011KT 1SM -RA BR SCT007 BKN010 OVC025
     FM220500 21010KT 4SM -RA BR BKN007 OVC015=



000
FTUS46 KPQR 212123 AAB
TAFEUG
TAF AMD
KEUG 212123Z 2121/2218 18015KT 6SM -RA BR BKN020 OVC035
     FM212300 19016G27KT 4SM RA BKN015 OVC030
     FM220600 20013KT 4SM -RA BR BKN015 OVC025=



000
FTUS46 KPQR 212123 AAB
TAFEUG
TAF AMD
KEUG 212123Z 2121/2218 18015KT 6SM -RA BR BKN020 OVC035
     FM212300 19016G27KT 4SM RA BKN015 OVC030
     FM220600 20013KT 4SM -RA BR BKN015 OVC025=



000
FTUS46 KPQR 212052 AAC
TAFPDX
TAF AMD
KPDX 212052Z 2121/2218 12015KT 4SM -RA BR BKN040 OVC050
     FM220200 18012G22KT 4SM -RA BR SCT015 BKN025 OVC040
     FM220600 21011KT 4SM -RA BR BKN015 OVC025=



000
FTUS46 KPQR 212048 AAB
TAFONP
TAF AMD
KONP 212048Z 2121/2218 19028G35KT 3SM RA BKN015 OVC020
     FM212200 19030G45KT 2SM RA BR BKN012 OVC020
     FM220300 21022G35KT 3SM -RA BR BKN015 OVC025=



000
FTUS46 KPQR 212048 AAB
TAFONP
TAF AMD
KONP 212048Z 2121/2218 19028G35KT 3SM RA BKN015 OVC020
     FM212200 19030G45KT 2SM RA BR BKN012 OVC020
     FM220300 21022G35KT 3SM -RA BR BKN015 OVC025=



000
FTUS46 KPQR 212031 AAA
TAFEUG
TAF AMD
KEUG 212031Z 2121/2218 17009KT P6SM -RA FEW045 OVC070
     FM212200 18012G20KT 6SM -RA BR BKN030 OVC050
     FM220000 19016G27KT 4SM RA BKN015 OVC030
     FM220600 20013KT 4SM -RA BR BKN015 OVC025=



000
FTUS46 KPQR 212012 AAA
TAFSLE
TAF AMD
KSLE 212012Z 2120/2218 18011KT P6SM -RA SCT030 OVC060
     FM212300 19014G22KT 4SM RA BKN030 OVC050
     FM220600 20010KT 4SM -RA BR BKN012 OVC025=



000
FTUS46 KPQR 212012 AAA
TAFSLE
TAF AMD
KSLE 212012Z 2120/2218 18011KT P6SM -RA SCT030 OVC060
     FM212300 19014G22KT 4SM RA BKN030 OVC050
     FM220600 20010KT 4SM -RA BR BKN012 OVC025=



000
FTUS46 KPQR 212007 AAC
TAFTTD
TAF AMD
KTTD 212007Z 2120/2218 09022G29KT 5SM -RA BR BKN050 OVC080
      WS015/18030KT
     FM212200 10022G29KT 4SM RA BR BKN040 OVC060
     FM220400 11010KT 4SM -RA BR BKN020 OVC035
     FM220800 21007KT 4SM -RA BR BKN018 OVC035=



000
FTUS46 KPQR 212007 AAC
TAFTTD
TAF AMD
KTTD 212007Z 2120/2218 09022G29KT 5SM -RA BR BKN050 OVC080
      WS015/18030KT
     FM212200 10022G29KT 4SM RA BR BKN040 OVC060
     FM220400 11010KT 4SM -RA BR BKN020 OVC035
     FM220800 21007KT 4SM -RA BR BKN018 OVC035=



000
FTUS46 KPQR 211921 AAB
TAFPDX
TAF AMD
KPDX 211921Z 2119/2218 12015KT 4SM -RA BR FEW040 BKN060 OVC080
     FM220200 18012G22KT 6SM -RA BR SCT015 BKN025 OVC040
     FM220500 21011KT 4SM -RA BR BKN015 OVC025=



000
FTUS46 KPQR 211921 AAB
TAFPDX
TAF AMD
KPDX 211921Z 2119/2218 12015KT 4SM -RA BR FEW040 BKN060 OVC080
     FM220200 18012G22KT 6SM -RA BR SCT015 BKN025 OVC040
     FM220500 21011KT 4SM -RA BR BKN015 OVC025=



000
FTUS46 KPQR 211918 AAB
TAFTTD
TAF AMD
KTTD 211918Z 2119/2218 09022G27KT P6SM FEW045 BKN060 OVC080
      WS015/18030KT
     FM212200 10012G21KT 4SM RA BR BKN022 OVC035
     FM220400 11010KT 4SM -RA BR BKN020 OVC035
     FM220800 21007KT 4SM -RA BR BKN018 OVC035=



000
FTUS46 KPQR 211918 AAB
TAFTTD
TAF AMD
KTTD 211918Z 2119/2218 09022G27KT P6SM FEW045 BKN060 OVC080
      WS015/18030KT
     FM212200 10012G21KT 4SM RA BR BKN022 OVC035
     FM220400 11010KT 4SM -RA BR BKN020 OVC035
     FM220800 21007KT 4SM -RA BR BKN018 OVC035=



000
FTUS46 KPQR 211916 AAA
TAFPDX
TAF AMD
KPDX 211916Z 2119/2218 12015KT P6SM FEW040 BKN060 OVC080
     FM212100 13014KT 4SM RA BR BKN022 OVC035
     FM220200 18012G22KT 6SM -RA BR SCT015 BKN025 OVC040
     FM220500 21011KT 4SM -RA BR BKN015 OVC025=



000
FTUS46 KPQR 211916 AAA
TAFPDX
TAF AMD
KPDX 211916Z 2119/2218 12015KT P6SM FEW040 BKN060 OVC080
     FM212100 13014KT 4SM RA BR BKN022 OVC035
     FM220200 18012G22KT 6SM -RA BR SCT015 BKN025 OVC040
     FM220500 21011KT 4SM -RA BR BKN015 OVC025=



000
FTUS46 KPQR 211823 AAA
TAFHIO
TAF AMD
KHIO 211823Z 2118/2218 16010KT 3SM -RA BR BKN030 OVC060
     FM220200 19012G22KT 4SM -RA BR BKN015 OVC030
     FM220500 21010KT 4SM -RA BR BKN007 OVC015=



000
FTUS46 KPQR 211823 AAA
TAFHIO
TAF AMD
KHIO 211823Z 2118/2218 16010KT 3SM -RA BR BKN030 OVC060
     FM220200 19012G22KT 4SM -RA BR BKN015 OVC030
     FM220500 21010KT 4SM -RA BR BKN007 OVC015=



000
FTUS46 KPQR 211820 AAA
TAFTTD
TAF AMD
KTTD 211820Z 2118/2218 09022G27KT P6SM OVC045 WS015/18030KT
     FM212200 10012G21KT 4SM RA BR BKN022 OVC035
     FM220400 11010KT 4SM -RA BR BKN020 OVC035
     FM220800 21007KT 4SM -RA BR BKN018 OVC035=



000
FTUS46 KPQR 211820 AAA
TAFTTD
TAF AMD
KTTD 211820Z 2118/2218 09022G27KT P6SM OVC045 WS015/18030KT
     FM212200 10012G21KT 4SM RA BR BKN022 OVC035
     FM220400 11010KT 4SM -RA BR BKN020 OVC035
     FM220800 21007KT 4SM -RA BR BKN018 OVC035=



000
FTUS46 KPQR 211804 AAA
TAFONP
TAF AMD
KONP 211804Z 2118/2218 16015G25KT P6SM -RA SCT007 BKN015 OVC030
     FM212100 19030G45KT 2SM RA BR BKN012 OVC020
     FM220300 21022G35KT 3SM -RA BR BKN015 OVC025=



000
FTUS46 KPQR 211804 AAA
TAFONP
TAF AMD
KONP 211804Z 2118/2218 16015G25KT P6SM -RA SCT007 BKN015 OVC030
     FM212100 19030G45KT 2SM RA BR BKN012 OVC020
     FM220300 21022G35KT 3SM -RA BR BKN015 OVC025=



000
FTUS46 KPQR 211743
TAFONP
TAF
KONP 211743Z 2118/2218 16010KT P6SM -RA SCT005 BKN030 OVC040
      TEMPO 2118/2120 BKN005
     FM212100 19030G45KT 2SM RA BR BKN012 OVC020
     FM220300 21022G35KT 3SM -RA BR BKN015 OVC025=



000
FTUS46 KPQR 211743
TAFEUG
TAF
KEUG 211743Z 2118/2218 17009KT P6SM -RA FEW045 OVC070
     FM212000 18013KT 6SM -RA BR BKN025 OVC040
     FM212300 19016G27KT 4SM RA BKN015 OVC030
     FM220600 20013KT 4SM -RA BR BKN015 OVC025=



000
FTUS46 KPQR 211743
TAFSLE
TAF
KSLE 211743Z 2118/2218 19012G20KT P6SM -RA BKN040 OVC050
     FM212000 19012G24KT P6SM -RA SCT008 BKN025 OVC040
     FM212300 19014G28KT 4SM RA BKN020 OVC035
     FM220600 20010KT 4SM -RA BR BKN012 OVC025=



000
FTUS46 KPQR 211743
TAFTTD
TAF
KTTD 211743Z 2118/2218 09022G27KT P6SM OVC045
     FM212200 10012G21KT 4SM RA BR BKN022 OVC035
     FM220300 13012KT 6SM -RA SCT025 OVC040
     FM220600 13010KT 4SM -RA BR BKN018 OVC035=



000
FTUS46 KPQR 211743
TAFHIO
TAF
KHIO 211743Z 2118/2218 11003KT 3SM -RA BR OVC040
     FM212100 16012KT 6SM RA BR BKN015 OVC025
     FM220200 19012G22KT 4SM -RA BR BKN015 OVC030
     FM220500 21010KT 4SM -RA BR BKN007 OVC015=



000
FTUS46 KPQR 211743
TAFPDX
TAF
KPDX 211743Z 2118/2218 12015KT P6SM OVC045
     FM212100 13014KT 4SM RA BR BKN022 OVC035
     FM220200 18012G22KT 6SM -RA BR SCT015 BKN025 OVC040
     FM220500 21011KT 4SM -RA BR BKN015 OVC025=



000
FTUS46 KPQR 211743
TAFAST
TAF
KAST 211743Z 2118/2218 09004KT P6SM -RA FEW020 BKN030 OVC050
      TEMPO 2118/2120 BKN020
     FM212100 19035G45KT 3SM RA BR BKN030 OVC050
     FM220300 23015G25KT 6SM -RA BR SCT015 BKN025 OVC040
     FM220600 25014KT P6SM -RA SCT025 OVC040=



000
FTUS46 KPQR 211743
TAFSLE
TAF
KSLE 211743Z 2118/2218 19012G20KT P6SM -RA BKN040 OVC050
     FM212000 19012G24KT P6SM -RA SCT008 BKN025 OVC040
     FM212300 19014G28KT 4SM RA BKN020 OVC035
     FM220600 20010KT 4SM -RA BR BKN012 OVC025=



000
FTUS46 KPQR 211743
TAFAST
TAF
KAST 211743Z 2118/2218 09004KT P6SM -RA FEW020 BKN030 OVC050
      TEMPO 2118/2120 BKN020
     FM212100 19035G45KT 3SM RA BR BKN030 OVC050
     FM220300 23015G25KT 6SM -RA BR SCT015 BKN025 OVC040
     FM220600 25014KT P6SM -RA SCT025 OVC040=



000
FTUS46 KPQR 211743
TAFTTD
TAF
KTTD 211743Z 2118/2218 09022G27KT P6SM OVC045
     FM212200 10012G21KT 4SM RA BR BKN022 OVC035
     FM220300 13012KT 6SM -RA SCT025 OVC040
     FM220600 13010KT 4SM -RA BR BKN018 OVC035=



000
FTUS46 KPQR 211743
TAFHIO
TAF
KHIO 211743Z 2118/2218 11003KT 3SM -RA BR OVC040
     FM212100 16012KT 6SM RA BR BKN015 OVC025
     FM220200 19012G22KT 4SM -RA BR BKN015 OVC030
     FM220500 21010KT 4SM -RA BR BKN007 OVC015=



000
FTUS46 KPQR 211743
TAFONP
TAF
KONP 211743Z 2118/2218 16010KT P6SM -RA SCT005 BKN030 OVC040
      TEMPO 2118/2120 BKN005
     FM212100 19030G45KT 2SM RA BR BKN012 OVC020
     FM220300 21022G35KT 3SM -RA BR BKN015 OVC025=



000
FTUS46 KPQR 211743
TAFEUG
TAF
KEUG 211743Z 2118/2218 17009KT P6SM -RA FEW045 OVC070
     FM212000 18013KT 6SM -RA BR BKN025 OVC040
     FM212300 19016G27KT 4SM RA BKN015 OVC030
     FM220600 20013KT 4SM -RA BR BKN015 OVC025=



000
FTUS46 KPQR 211743
TAFPDX
TAF
KPDX 211743Z 2118/2218 12015KT P6SM OVC045
     FM212100 13014KT 4SM RA BR BKN022 OVC035
     FM220200 18012G22KT 6SM -RA BR SCT015 BKN025 OVC040
     FM220500 21011KT 4SM -RA BR BKN015 OVC025=



000
FTUS46 KPQR 211638 AAA
TAFEUG
TAF AMD
KEUG 211638Z 2117/2212 17008KT P6SM -RA SCT025 OVC045
     FM212000 18013KT 6SM -RA BR BKN025 OVC040
     FM212300 19016G27KT 4SM RA BKN015 OVC030
     FM220600 20013KT 4SM -RA BR BKN015 OVC025=



000
FTUS46 KPQR 211638 AAA
TAFEUG
TAF AMD
KEUG 211638Z 2117/2212 17008KT P6SM -RA SCT025 OVC045
     FM212000 18013KT 6SM -RA BR BKN025 OVC040
     FM212300 19016G27KT 4SM RA BKN015 OVC030
     FM220600 20013KT 4SM -RA BR BKN015 OVC025=



000
FTUS46 KPQR 211637 AAB
TAFSLE
TAF AMD
KSLE 211637Z 2117/2212 18012KT P6SM -RA FEW007 OVC045
     FM212000 19012G24KT P6SM -RA SCT008 BKN025 OVC040
     FM212300 19014G28KT 4SM RA BKN020 OVC035
     FM220600 20010KT 4SM -RA BR BKN012 OVC025=



000
FTUS46 KPQR 211637 AAB
TAFSLE
TAF AMD
KSLE 211637Z 2117/2212 18012KT P6SM -RA FEW007 OVC045
     FM212000 19012G24KT P6SM -RA SCT008 BKN025 OVC040
     FM212300 19014G28KT 4SM RA BKN020 OVC035
     FM220600 20010KT 4SM -RA BR BKN012 OVC025=



000
FTUS46 KPQR 211635 AAA
TAFONP
TAF AMD
KONP 211635Z 2117/2212 16012KT 6SM -RA SCT005 OVC018
      TEMPO 2117/2118 5SM -RA BR BKN005
     FM211800 18016G28KT 4SM -RA BR SCT005 BKN015 OVC030
     FM212100 19030G45KT 2SM RA BR BKN012 OVC020
     FM220300 21022G35KT 3SM -RA BR BKN015 OVC025=



000
FTUS46 KPQR 211635 AAA
TAFONP
TAF AMD
KONP 211635Z 2117/2212 16012KT 6SM -RA SCT005 OVC018
      TEMPO 2117/2118 5SM -RA BR BKN005
     FM211800 18016G28KT 4SM -RA BR SCT005 BKN015 OVC030
     FM212100 19030G45KT 2SM RA BR BKN012 OVC020
     FM220300 21022G35KT 3SM -RA BR BKN015 OVC025=



000
FTUS46 KPQR 211449 AAA
TAFPDX
TAF AMD
KPDX 211449Z 2115/2212 12009KT P6SM OVC050
     FM211600 12014KT 6SM -RA SCT025 OVC040
     FM212100 13014KT 4SM RA BR BKN022 OVC035
     FM220200 18012G22KT 6SM -RA BR SCT015 BKN025 OVC040
     FM220500 21011KT 4SM -RA BR BKN015 OVC025=



000
FTUS46 KPQR 211449 AAA
TAFPDX
TAF AMD
KPDX 211449Z 2115/2212 12009KT P6SM OVC050
     FM211600 12014KT 6SM -RA SCT025 OVC040
     FM212100 13014KT 4SM RA BR BKN022 OVC035
     FM220200 18012G22KT 6SM -RA BR SCT015 BKN025 OVC040
     FM220500 21011KT 4SM -RA BR BKN015 OVC025=



000
FTUS46 KPQR 211401 AAA
TAFHIO
TAF AMD
KHIO 211401Z 2114/2212 00000KT P6SM SCT007 OVC050
     FM211700 16006KT P6SM -RA SCT007 BKN020 OVC035
     FM212100 16012KT 6SM RA BR BKN015 OVC025
     FM220200 19012G22KT 4SM -RA BR BKN015 OVC030
     FM220500 21010KT 4SM -RA BR BKN007 OVC015=



000
FTUS46 KPQR 211401 AAA
TAFHIO
TAF AMD
KHIO 211401Z 2114/2212 00000KT P6SM SCT007 OVC050
     FM211700 16006KT P6SM -RA SCT007 BKN020 OVC035
     FM212100 16012KT 6SM RA BR BKN015 OVC025
     FM220200 19012G22KT 4SM -RA BR BKN015 OVC030
     FM220500 21010KT 4SM -RA BR BKN007 OVC015=



    US Dept of Commerce
    National Oceanic and Atmospheric Administration
    National Weather Service
    1325 East West Highway
    Silver Spring, MD 20910
    Page Author: NWS Internet Services Team
Disclaimer
Information Quality
Credits
Glossary
Privacy Policy
Freedom of Information Act (FOIA)
About Us
Career Opportunities